Radiosonde details



Informationen :

Serial : MEC500860
Type : Meteomodem M20
Frequency : 403.598MHz
Launchsite : -
Nearest town : Donskoye, RU (4.5km)

Altitude (Max) : 159087m at 2026-08-30 12:15:52
Speed (Max) : 207km/h at altitude 986m

Average speed : 89km/h
Average ascent rate : 7m/s
Average descent rate : -1m/s
Ascent rate (Max) : 14.7m/s
Descent rate (Max): -3.7m/s

First frame :
SP3BTT-11 at 2026-08-30 11:47:26 at altitude 10911m (OG: 10869m)
Last frame :
AA1-15 at 2026-08-30 12:59:06 at altitude 828m (OG: 786m)

Flighttime : 1h11m40s
Ascent time : 28m26s
Descent time : 43m14s
Uptime : 0h0m0s
Killtimer : -

Distance (Straight line distance): 125km

Distance (Route):


Frames : 699


Measurement :

Temperature : -50.9°C
Humidity : 0%
Pressure : 17.7hPa


Vertical profile (SkewT) :


Elevation profile :



Receiving stations :


Receiver Frames First received Last received
AA1-15 683 2026-08-30 12:14:05 2026-08-30 12:59:06
SP3BTT-10 13 2026-08-30 11:47:26 2026-08-30 12:53:20
SQ2ODE-11 3 2026-08-30 12:52:36 2026-08-30 12:53:03

Share per receiver :



All frames :


Receiver Date Latitude Longitude Direction Speed Altitude Climb Temperature Humidity Pressure Voltage Killtimer Uptime BKT XDATA
AA1-152026-08-30 12:59:0654.9199219.90572244°93km/h828m5.5m/s-50.9°C0%17.7hPa2.3V00:00:0000:00:0000:00:00
AA1-152026-08-30 12:58:0954.8824120.0404215km/h2700m8.5m/s-45.7°C0%12.2hPa2.3V00:00:0000:00:0000:00:00
AA1-152026-08-30 12:57:5454.8816320.04060357°24km/h2533m10.7m/s-45.2°C0%11hPa2.3V00:00:0000:00:0000:00:00
AA1-152026-08-30 12:56:5254.8796320.0406527km/h2053m11.8m/s-40.2°C0%6.9hPa2.3V00:00:0000:00:0000:00:00
AA1-152026-08-30 12:56:3254.8771420.04093346°95km/h1938m8.3m/s-40.5°C0%5.9hPa2.3V00:00:0000:00:0000:00:00
AA1-152026-08-30 12:55:4754.8707420.05438276°97km/h1500m8.9m/s-36.6°C0%4.8hPa2.3V00:00:0000:00:0000:00:00
AA1-152026-08-30 12:55:4354.8705020.05710268°95km/h1399m7.9m/s-36.9°C0%4.8hPa2.3V00:00:0000:00:0000:00:00
AA1-152026-08-30 12:55:31-12.04949-77.046340km/h159087m0m/s-37.5°C0%4.9hPa2.3V00:00:0000:00:0000:00:00
AA1-152026-08-30 12:55:20-12.04526-77.04263221°199km/h989m0.1m/s-38°C0%5hPa2.3V00:00:0000:00:0000:00:00
AA1-152026-08-30 12:55:19-12.04487-77.04230218°199km/h989m-0.4m/s-38°C0%5hPa2.3V00:00:0000:00:0000:00:00
AA1-152026-08-30 12:55:17-12.04406-77.04174211°199km/h991m-0.2m/s-38°C0%5hPa2.3V00:00:0000:00:0000:00:00
AA1-152026-08-30 12:55:16-12.04362-77.04150208°199km/h993m0.6m/s-38°C0%5hPa2.3V00:00:0000:00:0000:00:00
AA1-152026-08-30 12:55:15-12.04316-77.04127205°201km/h993m1m/s-38°C0%5.1hPa2.3V00:00:0000:00:0000:00:00
AA1-152026-08-30 12:55:14-12.04269-77.04106202°199km/h992m0.8m/s-38°C0%5hPa2.3V00:00:0000:00:0000:00:00
AA1-152026-08-30 12:55:12-12.04172-77.04071196°199km/h987m0.3m/s-38°C0%5.1hPa2.3V00:00:0000:00:0000:00:00
AA1-152026-08-30 12:55:10-12.04075-77.04049189°197km/h988m-0.2m/s-38.2°C0%5.1hPa2.3V00:00:0000:00:0000:00:00
AA1-152026-08-30 12:55:09-12.04025-77.04042185°197km/h988m-0.4m/s-38.2°C0%5.1hPa2.3V00:00:0000:00:0000:00:00
AA1-152026-08-30 12:55:01-12.03492-77.039710km/h159087m0m/s-38.3°C0%5.2hPa2.3V00:00:0000:00:0000:00:00
AA1-152026-08-30 12:54:50-12.03181-77.04432124°197km/h990m2.1m/s-38.4°C0%5.2hPa2.3V00:00:0000:00:0000:00:00
AA1-152026-08-30 12:54:49-12.03153-77.04475124°190km/h991m1.7m/s-38.4°C0%5.3hPa2.3V00:00:0000:00:0000:00:00
AA1-152026-08-30 12:54:47-12.03103-77.04563112°204km/h983m-3.7m/s-38.5°C0%5.3hPa2.3V00:00:0000:00:0000:00:00
AA1-152026-08-30 12:54:45-12.03067-77.04662106°204km/h986m-2.7m/s-38.5°C0%5.3hPa2.3V00:00:0000:00:0000:00:00
AA1-152026-08-30 12:54:43-12.03043-77.04762100°197km/h991m-0.1m/s-38.6°C0%5.3hPa2.3V00:00:0000:00:0000:00:00
AA1-152026-08-30 12:54:41-12.03025-77.0491394°193km/h986m1.1m/s-38.6°C0%5.3hPa2.3V00:00:0000:00:0000:00:00
AA1-152026-08-30 12:54:39-12.03024-77.0496489°190km/h987m2.1m/s-38.6°C0%5.3hPa2.3V00:00:0000:00:0000:00:00
AA1-152026-08-30 12:54:38-12.03027-77.0501485°203km/h985m-0.8m/s-38.7°C0%5.3hPa2.3V00:00:0000:00:0000:00:00
AA1-152026-08-30 12:54:36-12.03040-77.0511879°199km/h987m-1.7m/s-38.8°C0%5.3hPa2.3V00:00:0000:00:0000:00:00
AA1-152026-08-30 12:54:35-12.03051-77.0516976°201km/h988m-0.5m/s-38.8°C0%5.3hPa2.3V00:00:0000:00:0000:00:00
AA1-152026-08-30 12:54:34-12.03065-77.0521972°197km/h988m-1.1m/s-38.8°C0%5.3hPa2.3V00:00:0000:00:0000:00:00
AA1-152026-08-30 12:54:33-12.03081-77.0526770°197km/h989m-1.1m/s-38.9°C0%5.3hPa2.3V00:00:0000:00:0000:00:00
AA1-152026-08-30 12:54:31-12.03120-77.0536164°199km/h991m-0.9m/s-39°C0%5.4hPa2.3V00:00:0000:00:0000:00:00
AA1-152026-08-30 12:54:30-12.03144-77.0540660°201km/h992m-0.6m/s-39°C0%5.4hPa2.3V00:00:0000:00:0000:00:00
AA1-152026-08-30 12:54:28-12.03200-77.0549354°201km/h990m-0m/s-39°C0%5.4hPa2.3V00:00:0000:00:0000:00:00
AA1-152026-08-30 12:54:27-12.03232-77.0553451°199km/h986m1.4m/s-38.9°C0%5.5hPa2.3V00:00:0000:00:0000:00:00
AA1-152026-08-30 12:54:25-12.03299-77.0561044°197km/h985m-1.2m/s-39°C0%5.4hPa2.3V00:00:0000:00:0000:00:00
AA1-152026-08-30 12:54:23-12.03376-77.0567838°201km/h988m-0.7m/s-39°C0%5.4hPa2.3V00:00:0000:00:0000:00:00
AA1-152026-08-30 12:54:21-12.03459-77.0573732°199km/h989m-0.3m/s-39.1°C0%5.5hPa2.3V00:00:0000:00:0000:00:00
AA1-152026-08-30 12:54:19-12.03548-77.0578724°197km/h985m-0.1m/s-39.1°C0%5.5hPa2.3V00:00:0000:00:0000:00:00
AA1-152026-08-30 12:54:18-12.03595-77.0580722°199km/h985m0.3m/s-39.1°C0%5.5hPa2.3V00:00:0000:00:0000:00:00
AA1-152026-08-30 12:54:16-12.03691-77.0584016°201km/h986m0m/s-39.2°C0%5.5hPa2.3V00:00:0000:00:0000:00:00
AA1-152026-08-30 12:54:15-12.03740-77.0585312°197km/h987m0.1m/s-39.3°C0%5.5hPa2.3V00:00:0000:00:0000:00:00
AA1-152026-08-30 12:54:13-12.03840-77.05869199km/h988m0.1m/s-39.3°C0%5.5hPa2.3V00:00:0000:00:0000:00:00
AA1-152026-08-30 12:54:12-12.03890-77.05873199km/h988m0.2m/s-39.3°C0%5.5hPa2.3V00:00:0000:00:0000:00:00
AA1-152026-08-30 12:54:11-12.03941-77.05874360°199km/h988m-0.1m/s-39.2°C0%5.5hPa2.3V00:00:0000:00:0000:00:00
AA1-152026-08-30 12:54:08-12.04092-77.05858349°201km/h988m0.9m/s-39.1°C0%5.6hPa2.3V00:00:0000:00:0000:00:00
AA1-152026-08-30 12:54:07-12.04141-77.05848347°199km/h988m0.5m/s-39.1°C0%5.5hPa2.3V00:00:0000:00:0000:00:00
AA1-152026-08-30 12:54:05-12.04239-77.05819340°199km/h988m-0.2m/s-39.2°C0%5.6hPa2.3V00:00:0000:00:0000:00:00
AA1-152026-08-30 12:54:04-12.04286-77.05800337°199km/h988m-0.2m/s-39.1°C0%5.6hPa2.3V00:00:0000:00:0000:00:00
AA1-152026-08-30 12:54:02-12.04377-77.05756331°199km/h990m-0.1m/s-39.3°C0%5.6hPa2.3V00:00:0000:00:0000:00:00
AA1-152026-08-30 12:53:59-12.04502-77.05669321°199km/h991m0m/s-39.3°C0%5.6hPa2.3V00:00:0000:00:0000:00:00
AA1-152026-08-30 12:53:58-12.04541-77.05636318°199km/h991m0.3m/s-39.4°C0%5.7hPa2.3V00:00:0000:00:0000:00:00
AA1-152026-08-30 12:53:56-12.04612-77.05562311°199km/h985m0m/s-39.4°C0%5.6hPa2.3V00:00:0000:00:0000:00:00
AA1-152026-08-30 12:53:54-12.04674-77.05481305°199km/h986m-0.2m/s-39.4°C0%5.7hPa2.3V00:00:0000:00:0000:00:00
AA1-152026-08-30 12:53:52-12.04728-77.05395299°199km/h989m-0m/s-39.8°C0%5.7hPa2.3V00:00:0000:00:0000:00:00
AA1-152026-08-30 12:53:51-12.04751-77.05349295°199km/h989m-0.6m/s-39.8°C0%5.7hPa2.3V00:00:0000:00:0000:00:00
AA1-152026-08-30 12:53:50-12.04771-77.05302292°199km/h990m-0.1m/s-39.8°C0%5.7hPa2.3V00:00:0000:00:0000:00:00
AA1-152026-08-30 12:53:48-12.04804-77.05204286°199km/h987m-0.1m/s-40°C0%5.7hPa2.3V00:00:0000:00:0000:00:00
AA1-152026-08-30 12:53:46-12.04825-77.05103279°199km/h987m0m/s-40.1°C0%5.7hPa2.3V00:00:0000:00:0000:00:00
AA1-152026-08-30 12:53:44-12.04837-77.05001273°199km/h985m-0.1m/s-40°C0%5.8hPa2.3V00:00:0000:00:0000:00:00
AA1-152026-08-30 12:53:43-12.04838-77.04950270°199km/h984m0.1m/s-40°C0%5.8hPa2.3V00:00:0000:00:0000:00:00
AA1-152026-08-30 12:53:42-12.04836-77.04898267°199km/h983m0m/s-40.1°C0%5.8hPa2.3V00:00:0000:00:0000:00:00
AA1-152026-08-30 12:53:40-12.04824-77.04796260°199km/h981m0m/s-40.1°C0%5.8hPa2.3V00:00:0000:00:0000:00:00
AA1-152026-08-30 12:53:39-12.04814-77.04746257°199km/h983m-0.3m/s-40°C0%5.8hPa2.3V00:00:0000:00:0000:00:00
AA1-152026-08-30 12:53:37-12.04785-77.04648250°201km/h988m0.9m/s-40°C0%5.8hPa2.3V00:00:0000:00:0000:00:00
AA1-152026-08-30 12:53:36-12.04767-77.04600248°197km/h987m0.4m/s-40°C0%5.8hPa2.3V00:00:0000:00:0000:00:00
AA1-152026-08-30 12:53:35-12.04746-77.04553244°199km/h987m0.1m/s-40°C0%5.8hPa2.3V00:00:0000:00:0000:00:00
AA1-152026-08-30 12:53:34-12.04723-77.04508241°199km/h988m-0.2m/s-40°C0%5.9hPa2.3V00:00:0000:00:0000:00:00
AA1-152026-08-30 12:53:32-12.04669-77.04421235°201km/h989m0.6m/s-40.1°C0%5.8hPa2.3V00:00:0000:00:0000:00:00
AA1-152026-08-30 12:53:31-12.04639-77.04381231°199km/h991m-0.1m/s-40.1°C0%5.9hPa2.3V00:00:0000:00:0000:00:00
AA1-152026-08-30 12:53:30-12.04607-77.04341228°199km/h991m-0.2m/s-40.3°C0%5.9hPa2.3V00:00:0000:00:0000:00:00
AA1-152026-08-30 12:53:29-12.04572-77.04304225°201km/h991m0.7m/s-40.5°C0%5.9hPa2.3V00:00:0000:00:0000:00:00
AA1-152026-08-30 12:53:27-12.04494-77.04235218°199km/h988m0m/s-40.4°C0%5.9hPa2.3V00:00:0000:00:0000:00:00
AA1-152026-08-30 12:53:25-12.04411-77.04176212°199km/h987m0.3m/s-40.5°C0%6hPa2.3V00:00:0000:00:0000:00:00
AA1-152026-08-30 12:53:24-12.04368-77.04151209°197km/h988m-0.1m/s-40.4°C0%6hPa2.3V00:00:0000:00:0000:00:00
AA1-152026-08-30 12:53:23-12.04323-77.04127206°199km/h985m-0m/s-40.4°C0%5.9hPa2.3V00:00:0000:00:0000:00:00
AA1-152026-08-30 12:53:21-12.04229-77.04087199°199km/h986m-0.1m/s-40.4°C0%6hPa2.3V00:00:0000:00:0000:00:00
SP3BTT-102026-08-30 12:53:20-12.04229-77.04087199°199km/h986m-0.0m/s0°C0%0hPa2.3V00:00:0000:00:0000:00:00
AA1-152026-08-30 12:53:20-12.04180-77.04071196°199km/h986m-0.5m/s-40.3°C0%6hPa2.3V00:00:0000:00:0000:00:00
AA1-152026-08-30 12:53:18-12.04082-77.04049189°199km/h985m-0.1m/s-40.4°C0%6hPa2.3V00:00:0000:00:0000:00:00
AA1-152026-08-30 12:53:16-12.03981-77.04038183°199km/h985m0.5m/s-40.2°C0%6hPa2.3V00:00:0000:00:0000:00:00
AA1-152026-08-30 12:53:15-12.03930-77.04036180°199km/h985m-0.4m/s-40.2°C0%6hPa2.3V00:00:0000:00:0000:00:00
AA1-152026-08-30 12:53:13-12.03829-77.04043173°199km/h985m-0.6m/s-40.2°C0%6hPa2.3V00:00:0000:00:0000:00:00
AA1-152026-08-30 12:53:11-12.03730-77.04060167°199km/h987m0.1m/s-40°C0%6hPa2.3V00:00:0000:00:0000:00:00
AA1-152026-08-30 12:53:10-12.03681-77.04073163°199km/h987m-0.8m/s-40.1°C0%6hPa2.3V00:00:0000:00:0000:00:00
AA1-152026-08-30 12:53:09-12.03633-77.04089161°199km/h988m-0m/s-40.2°C0%6hPa2.3V00:00:0000:00:0000:00:00
AA1-152026-08-30 12:53:08-12.03585-77.04107157°199km/h988m0.2m/s-40.2°C0%6.1hPa2.3V00:00:0000:00:0000:00:00
AA1-152026-08-30 12:53:06-12.03451-77.04179148°199km/h988m0.1m/s-40.1°C0%6.1hPa2.3V00:00:0000:00:0000:00:00
AA1-152026-08-30 12:53:04-12.03409-77.04207144°199km/h988m0.5m/s-40°C0%6.1hPa2.3V00:00:0000:00:0000:00:00
SQ2ODE-112026-08-30 12:53:03-12.03330-77.04271139°199km/h987m0.1m/s0°C0%0hPa2.3V00:00:0000:00:0000:00:00
AA1-152026-08-30 12:53:02-12.03330-77.04271138°199km/h987m0.1m/s-39.9°C0%6.2hPa2.3V00:00:0000:00:0000:00:00
AA1-152026-08-30 12:53:01-12.03293-77.04306135°199km/h988m-0.1m/s-39.8°C0%6.1hPa2.3V00:00:0000:00:0000:00:00
AA1-152026-08-30 12:53:00-12.03258-77.04344132°199km/h987m0.4m/s-39.8°C0%6.1hPa2.3V00:00:0000:00:0000:00:00
AA1-152026-08-30 12:52:58-12.03195-77.04424125°199km/h988m0.3m/s-39.8°C0%6.1hPa2.3V00:00:0000:00:0000:00:00
AA1-152026-08-30 12:52:57-12.03167-77.04466122°199km/h985m0.2m/s-39.8°C0%6.2hPa2.3V00:00:0000:00:0000:00:00
AA1-152026-08-30 12:52:55-12.03119-77.04557116°199km/h986m-0.2m/s-39.7°C0%6.2hPa2.3V00:00:0000:00:0000:00:00
AA1-152026-08-30 12:52:54-12.03098-77.04604112°201km/h986m-0.2m/s-39.7°C0%6.2hPa2.3V00:00:0000:00:0000:00:00
AA1-152026-08-30 12:52:53-12.03080-77.04652109°199km/h986m-0.1m/s-39.8°C0%6.2hPa2.3V00:00:0000:00:0000:00:00
AA1-152026-08-30 12:52:51-12.03053-77.04751103°199km/h985m0.2m/s-39.7°C0%6.2hPa2.3V00:00:0000:00:0000:00:00
AA1-152026-08-30 12:52:50-12.03044-77.0480299°199km/h985m0.1m/s-39.7°C0%6.2hPa2.3V00:00:0000:00:0000:00:00
AA1-152026-08-30 12:52:49-12.03037-77.0485396°199km/h984m0m/s-39.8°C0%6.2hPa2.3V00:00:0000:00:0000:00:00
AA1-152026-08-30 12:52:47-12.03030-77.0495690°197km/h983m0.3m/s-39.7°C0%6.3hPa2.3V00:00:0000:00:0000:00:00
AA1-152026-08-30 12:52:46-12.03032-77.0500887°199km/h983m-0.5m/s-39.8°C0%6.3hPa2.3V00:00:0000:00:0000:00:00
SP3BTT-102026-08-30 12:52:45-12.03032-77.0500887°199km/h983m-0.5m/s0°C0%0hPa2.3V00:00:0000:00:0000:00:00
SQ2ODE-112026-08-30 12:52:45-12.03036-77.0505885°199km/h982m0.3m/s0°C0%0hPa2.3V00:00:0000:00:0000:00:00
AA1-152026-08-30 12:52:45-12.03036-77.0505884°199km/h982m0.3m/s-39.8°C0%6.2hPa2.3V00:00:0000:00:0000:00:00
AA1-152026-08-30 12:52:43-12.03053-77.0515977°199km/h981m-0.4m/s-39.8°C0%6.3hPa2.3V00:00:0000:00:0000:00:00
AA1-152026-08-30 12:52:42-12.03065-77.0520974°199km/h979m0.2m/s-39.9°C0%6.3hPa2.3V00:00:0000:00:0000:00:00
AA1-152026-08-30 12:52:40-12.03099-77.0530867°199km/h983m-0.3m/s-40°C0%6.3hPa2.3V00:00:0000:00:0000:00:00
AA1-152026-08-30 12:52:39-12.03120-77.0535564°199km/h985m-0.8m/s-40°C0%6.3hPa2.3V00:00:0000:00:0000:00:00
AA1-152026-08-30 12:52:38-12.03143-77.0540161°199km/h986m0.1m/s-40°C0%6.3hPa2.3V00:00:0000:00:0000:00:00
SP3BTT-102026-08-30 12:52:37-12.03143-77.0540162°22km/h986m0.1m/s0°C0%0hPa2.3V00:00:0000:00:0000:00:00
SQ2ODE-112026-08-30 12:52:36-12.03169-77.0544659°199km/h986m0.0m/s0°C0%0hPa2.3V00:00:0000:00:0000:00:00
AA1-152026-08-30 12:52:36-12.03197-77.0548955°199km/h986m0.1m/s-40.2°C0%6.3hPa2.3V00:00:0000:00:0000:00:00
AA1-152026-08-30 12:52:34-12.03260-77.0557648°199km/h994m0.1m/s-40.1°C0%6.4hPa2.3V00:00:0000:00:0000:00:00
AA1-152026-08-30 12:52:33-12.03294-77.0561645°197km/h996m1m/s-40.1°C0%6.4hPa2.3V00:00:0000:00:0000:00:00
AA1-152026-08-30 12:52:32-12.03331-77.0565539°190km/h1001m5m/s-40.1°C0%6.4hPa2.3V00:00:0000:00:0000:00:00
AA1-152026-08-30 12:52:31-12.03370-77.0568437°192km/h995m3m/s-40.1°C0%6.4hPa2.3V00:00:0000:00:0000:00:00
AA1-152026-08-30 12:52:29-12.03452-77.0574132°199km/h991m-0.6m/s-40°C0%6.4hPa2.3V00:00:0000:00:0000:00:00
AA1-152026-08-30 12:52:28-12.03496-77.0576929°199km/h993m-0.4m/s-39.9°C0%6.4hPa2.3V00:00:0000:00:0000:00:00
AA1-152026-08-30 12:52:26-12.03586-77.0581423°199km/h992m0m/s-39.9°C0%6.4hPa2.3V00:00:0000:00:0000:00:00
AA1-152026-08-30 12:52:25-12.03682-77.0586114°197km/h1011m2.6m/s-39.9°C0%6.4hPa2.3V00:00:0000:00:0000:00:00
AA1-152026-08-30 12:52:23-12.03732-77.0587511°195km/h1016m2.2m/s-39.9°C0%6.5hPa2.3V00:00:0000:00:0000:00:00
AA1-152026-08-30 12:52:21-12.03829-77.05898199km/h1016m0.5m/s-39.9°C0%6.5hPa2.3V00:00:0000:00:0000:00:00
AA1-152026-08-30 12:52:1254.9513319.267670km/h159087m0m/s-40°C0%6.6hPa2.3V00:00:0000:00:0000:00:00
AA1-152026-08-30 12:52:0154.9513319.267670km/h159087m0m/s-40.1°C0%6.6hPa2.3V00:00:0000:00:0000:00:00
AA1-152026-08-30 12:51:5154.9513319.267670km/h159087m0m/s-40.2°C0%6.7hPa2.3V00:00:0000:00:0000:00:00
AA1-152026-08-30 12:51:4154.9513319.267670km/h159087m0m/s-39.8°C0%6.8hPa2.3V00:00:0000:00:0000:00:00
AA1-152026-08-30 12:51:3054.9513319.267670km/h159087m0m/s-39.7°C0%7hPa2.3V00:00:0000:00:0000:00:00
AA1-152026-08-30 12:51:0054.9513719.26902270°16km/h1763m8m/s-40.8°C0%7.2hPa2.3V00:00:0000:00:0000:00:00
AA1-152026-08-30 12:50:4154.9516419.27039253°62km/h1582m5.6m/s-41.2°C0%7.4hPa2.3V00:00:0000:00:0000:00:00
AA1-152026-08-30 12:50:3554.9521019.27261238°93km/h1526m8.4m/s-41.3°C0%7.5hPa2.3V00:00:0000:00:0000:00:00
AA1-152026-08-30 12:50:3454.9522619.27292232°93km/h1516m7.8m/s-41.3°C0%7.5hPa2.3V00:00:0000:00:0000:00:00
AA1-152026-08-30 12:50:2654.9539819.27435182°100km/h1451m7.9m/s-41.8°C0%7.5hPa2.3V00:00:0000:00:0000:00:00
AA1-152026-08-30 12:50:1954.9556319.27336140°99km/h1402m8.3m/s-41.8°C0%7.6hPa2.3V00:00:0000:00:0000:00:00
AA1-152026-08-30 12:50:1654.9561019.27241120°95km/h1391m8.7m/s-41.7°C0%7.7hPa2.3V00:00:0000:00:0000:00:00
AA1-152026-08-30 12:49:4355.0803619.727580km/h159087m0m/s-41.4°C0%8hPa2.3V00:00:0000:00:0000:00:00
AA1-152026-08-30 12:49:2155.0803619.727580km/h159087m0m/s-40.7°C0%8.2hPa2.3V00:00:0000:00:0000:00:00
AA1-152026-08-30 12:49:1155.0803619.727580km/h159087m0m/s-40.7°C0%8.3hPa2.3V00:00:0000:00:0000:00:00
AA1-152026-08-30 12:49:0055.0803619.727580km/h159087m0m/s-40.4°C0%8.4hPa2.3V00:00:0000:00:0000:00:00
AA1-152026-08-30 12:48:4955.0811719.72848212°38km/h159087m6.1m/s-40.4°C0%8.6hPa2.3V00:00:0000:00:0000:00:00
AA1-152026-08-30 12:48:3855.0814319.72893258°18km/h2691m9m/s-40.4°C0%8.7hPa2.3V00:00:0000:00:0000:00:00
AA1-152026-08-30 12:48:2855.0814719.72913288°15km/h2568m7.6m/s-40.5°C0%8.8hPa2.3V00:00:0000:00:0000:00:00
AA1-152026-08-30 12:48:1455.0812619.73028272°13km/h2504m8m/s-41°C0%8.9hPa2.3V00:00:0000:00:0000:00:00
AA1-152026-08-30 12:48:0455.0812819.73143281°13km/h2436m8.6m/s-41.2°C0%9.1hPa2.3V00:00:0000:00:0000:00:00
AA1-152026-08-30 12:47:5355.0815919.73219270°16km/h2332m7.9m/s-41.4°C0%9.2hPa2.3V00:00:0000:00:0000:00:00
AA1-152026-08-30 12:47:4355.0817519.73282271°13km/h2245m8.1m/s-42°C0%9.3hPa2.3V00:00:0000:00:0000:00:00
AA1-152026-08-30 12:47:3355.0817119.73362272°13km/h2179m8.1m/s-42.6°C0%9.4hPa2.3V00:00:0000:00:0000:00:00
AA1-152026-08-30 12:47:2355.0818419.73420263°13km/h2087m7.3m/s-43.2°C0%9.6hPa2.3V00:00:0000:00:0000:00:00
AA1-152026-08-30 12:47:1255.0822219.73493274°16km/h1994m8.5m/s-43.4°C0%9.7hPa2.3V00:00:0000:00:0000:00:00
AA1-152026-08-30 12:47:1055.0822519.73510271°13km/h1984m8m/s-43.5°C0%9.7hPa2.3V00:00:0000:00:0000:00:00
AA1-152026-08-30 12:47:0755.0825319.73524268°13km/h1963m8.1m/s-43.6°C0%9.7hPa2.3V00:00:0000:00:0000:00:00
AA1-152026-08-30 12:47:0555.0823819.73558269°13km/h1977m8.1m/s-43.5°C0%9.7hPa2.3V00:00:0000:00:0000:00:00
AA1-152026-08-30 12:47:0355.0823219.73570269°16km/h1961m8.2m/s-43.6°C0%9.8hPa2.3V00:00:0000:00:0000:00:00
AA1-152026-08-30 12:47:0255.0822819.73576272°13km/h1953m8.2m/s-43.5°C0%9.8hPa2.3V00:00:0000:00:0000:00:00
AA1-152026-08-30 12:47:0155.0822719.73583269°13km/h1943m8.4m/s-43.6°C0%9.8hPa2.3V00:00:0000:00:0000:00:00
AA1-152026-08-30 12:46:5855.0822619.73607270°13km/h1909m8m/s-43.5°C0%9.9hPa2.3V00:00:0000:00:0000:00:00
AA1-152026-08-30 12:46:5455.0823119.73625270°16km/h1876m8m/s-43.6°C0%9.9hPa2.3V00:00:0000:00:0000:00:00
AA1-152026-08-30 12:46:5255.0822819.73641270°13km/h1856m8m/s-43.6°C0%9.9hPa2.3V00:00:0000:00:0000:00:00
AA1-152026-08-30 12:46:5155.0822619.73648271°15km/h1846m8.2m/s-43.4°C0%9.9hPa2.3V00:00:0000:00:0000:00:00
AA1-152026-08-30 12:46:4955.0821819.73672282°15km/h1822m8.3m/s-43.5°C0%10hPa2.3V00:00:0000:00:0000:00:00
AA1-152026-08-30 12:46:4755.0822119.73688269°15km/h1802m8.1m/s-43.5°C0%9.9hPa2.3V00:00:0000:00:0000:00:00
AA1-152026-08-30 12:46:4355.0821219.73714276°15km/h1767m7.5m/s-43.4°C0%10hPa2.3V00:00:0000:00:0000:00:00
AA1-152026-08-30 12:46:2555.0844519.74127169°95km/h1615m8m/s-43.5°C0%10.3hPa2.3V00:00:0000:00:0000:00:00
AA1-152026-08-30 12:46:2355.0847119.74117164°99km/h1608m8.3m/s-43.5°C0%10.3hPa2.3V00:00:0000:00:0000:00:00
AA1-152026-08-30 12:46:1955.0857119.74035140°99km/h1585m7.9m/s-43.4°C0%10.3hPa2.3V00:00:0000:00:0000:00:00
AA1-152026-08-30 12:46:1655.0862419.73938118°97km/h1569m7.9m/s-43.5°C0%10.4hPa2.3V00:00:0000:00:0000:00:00
AA1-152026-08-30 12:46:1555.0863819.73900115°93km/h1562m8m/s-43.5°C0%10.4hPa2.3V00:00:0000:00:0000:00:00
AA1-152026-08-30 12:46:1255.0866219.7378197°99km/h1546m7.9m/s-43.6°C0%10.4hPa2.3V00:00:0000:00:0000:00:00
AA1-152026-08-30 12:46:0955.0867119.7365578°99km/h1529m8.1m/s-43.7°C0%10.4hPa2.3V00:00:0000:00:0000:00:00
AA1-152026-08-30 12:46:0555.0865219.7349656°97km/h1513m8m/s-43.7°C0%10.5hPa2.3V00:00:0000:00:0000:00:00
AA1-152026-08-30 12:45:5855.0852819.7333711°97km/h1458m8.1m/s-43.7°C0%10.6hPa2.3V00:00:0000:00:0000:00:00
AA1-152026-08-30 12:45:4855.0831619.7333595km/h1412m8m/s-44.1°C0%10.8hPa2.3V00:00:0000:00:0000:00:00
AA1-152026-08-30 12:45:4655.0827719.7333697km/h1398m8.1m/s-44.1°C0%10.8hPa2.3V00:00:0000:00:0000:00:00
AA1-152026-08-30 12:45:4555.0825619.7333693km/h1390m8.1m/s-44.1°C0%10.8hPa2.3V00:00:0000:00:0000:00:00
AA1-152026-08-30 12:45:3655.0804519.7331426°97km/h1283m8m/s-44.2°C0%10.9hPa2.3V00:00:0000:00:0000:00:00
AA1-152026-08-30 12:45:3355.0800219.7322380°97km/h1277m8.1m/s-44.4°C0%10.9hPa2.3V00:00:0000:00:0000:00:00
AA1-152026-08-30 12:45:1255.0817319.73603270°99km/h1014m8.2m/s-44.6°C0%11.2hPa2.3V00:00:0000:00:0000:00:00
AA1-152026-08-30 12:45:0255.0797519.73687213°99km/h684m5.5m/s-44.7°C0%11.3hPa2.4V00:00:0000:00:0000:00:00
AA1-152026-08-30 12:45:0155.0802619.73614206°95km/h527m6.8m/s-44.7°C0%11.4hPa2.4V00:00:0000:00:0000:00:00
AA1-152026-08-30 12:44:5554.9190219.89514191°18km/h159087m7.3m/s-44.7°C0%11.4hPa2.4V00:00:0000:00:0000:00:00
AA1-152026-08-30 12:44:4454.9194119.89546272°16km/h2781m8.1m/s-44.9°C0%11.6hPa2.3V00:00:0000:00:0000:00:00
AA1-152026-08-30 12:44:3354.9194619.89639271°13km/h2673m8m/s-45.2°C0%11.7hPa2.3V00:00:0000:00:0000:00:00
AA1-152026-08-30 12:44:2254.9193819.89758271°13km/h2574m8.3m/s-45.3°C0%11.9hPa2.4V00:00:0000:00:0000:00:00
AA1-152026-08-30 12:44:1254.9195619.89778265°13km/h2509m7.7m/s-45.1°C0%12hPa2.3V00:00:0000:00:0000:00:00
AA1-152026-08-30 12:44:0154.9197519.89849272°13km/h2397m8m/s-45.3°C0%12.1hPa2.3V00:00:0000:00:0000:00:00
AA1-152026-08-30 12:43:5054.9199719.89919271°13km/h2297m7.8m/s-45.5°C0%12.3hPa2.3V00:00:0000:00:0000:00:00
AA1-152026-08-30 12:43:3954.9200919.90015271°13km/h2198m9.2m/s-45.5°C0%12.5hPa2.3V00:00:0000:00:0000:00:00
AA1-152026-08-30 12:43:2854.9199719.90077271°16km/h2101m8.1m/s-45.4°C0%12.7hPa2.3V00:00:0000:00:0000:00:00
AA1-152026-08-30 12:43:1754.9200819.90150273°13km/h1995m8m/s-45.3°C0%12.8hPa2.4V00:00:0000:00:0000:00:00
AA1-152026-08-30 12:43:1654.9200719.90156270°15km/h1982m8.1m/s-45.3°C0%12.8hPa2.4V00:00:0000:00:0000:00:00
AA1-152026-08-30 12:43:1554.9200719.90162269°13km/h1971m8.1m/s-45.3°C0%12.8hPa2.3V00:00:0000:00:0000:00:00
AA1-152026-08-30 12:43:1354.9200619.90174272°13km/h1949m8m/s-45.3°C0%12.8hPa2.4V00:00:0000:00:0000:00:00
AA1-152026-08-30 12:43:1154.9200419.90186270°16km/h1927m8m/s-45.3°C0%12.9hPa2.3V00:00:0000:00:0000:00:00
AA1-152026-08-30 12:43:0754.9201619.90231274°16km/h1869m7.7m/s-45.5°C0%12.9hPa2.4V00:00:0000:00:0000:00:00
AA1-152026-08-30 12:43:0054.9201719.90266270°13km/h1836m7.9m/s-45.6°C0%13hPa2.4V00:00:0000:00:0000:00:00
AA1-152026-08-30 12:42:5554.9202419.90292271°15km/h1798m7.9m/s-45.9°C0%13.1hPa2.4V00:00:0000:00:0000:00:00
AA1-152026-08-30 12:42:5454.9202619.90296272°13km/h1789m8.2m/s-45.9°C0%13.1hPa2.4V00:00:0000:00:0000:00:00
AA1-152026-08-30 12:42:5054.9204519.90286270°16km/h1757m8.6m/s-46°C0%13.2hPa2.4V00:00:0000:00:0000:00:00
AA1-152026-08-30 12:42:4754.9202019.90341271°13km/h1751m8.2m/s-46.1°C0%13.2hPa2.4V00:00:0000:00:0000:00:00
AA1-152026-08-30 12:42:4654.9201919.90354276°13km/h1726m8.4m/s-46.2°C0%13.3hPa2.4V00:00:0000:00:0000:00:00
AA1-152026-08-30 12:42:4454.9201819.90360270°15km/h1713m8.1m/s-46.3°C0%13.3hPa2.4V00:00:0000:00:0000:00:00
AA1-152026-08-30 12:42:4054.9201819.90436261°93km/h1666m8.3m/s-46.4°C0%13.3hPa2.4V00:00:0000:00:0000:00:00
AA1-152026-08-30 12:42:3254.9212819.90710211°99km/h1617m8m/s-46.5°C0%13.5hPa2.4V00:00:0000:00:0000:00:00
AA1-152026-08-30 12:42:2954.9220419.90759193°99km/h1608m8m/s-46.5°C0%13.5hPa2.4V00:00:0000:00:0000:00:00
AA1-152026-08-30 12:42:2454.9233919.90759165°100km/h1582m8m/s-46.7°C0%13.6hPa2.4V00:00:0000:00:0000:00:00
AA1-152026-08-30 12:42:2254.9239119.90728151°93km/h1570m8m/s-46.7°C0%13.6hPa2.4V00:00:0000:00:0000:00:00
AA1-152026-08-30 12:42:1954.9245519.90651131°93km/h1550m8.2m/s-46.6°C0%13.7hPa2.4V00:00:0000:00:0000:00:00
AA1-152026-08-30 12:42:0754.9250419.9023170°95km/h1484m8.1m/s-46.5°C0%13.8hPa2.4V00:00:0000:00:0000:00:00
AA1-152026-08-30 12:42:0154.9240719.9005724°95km/h1461m8.2m/s-46.4°C0%14hPa2.4V00:00:0000:00:0000:00:00
AA1-152026-08-30 12:42:0054.9238319.9004519°95km/h1455m8m/s-46.5°C0%13.9hPa2.4V00:00:0000:00:0000:00:00
AA1-152026-08-30 12:41:4854.9214219.9002691km/h1361m9.3m/s-46.5°C0%14.2hPa2.4V00:00:0000:00:0000:00:00
AA1-152026-08-30 12:41:3854.9191519.9003795km/h1307m8.5m/s-46.7°C0%14.3hPa2.4V00:00:0000:00:0000:00:00
AA1-152026-08-30 12:41:3854.9189319.9003597km/h1300m8m/s-46.8°C0%14.3hPa2.4V00:00:0000:00:0000:00:00
AA1-152026-08-30 12:41:3254.9185519.89849116°97km/h1269m8m/s-47°C0%14.4hPa2.4V00:00:0000:00:0000:00:00
AA1-152026-08-30 12:41:2854.9195819.89793191°91km/h1252m7.9m/s-47.1°C0%14.5hPa2.4V00:00:0000:00:0000:00:00
AA1-152026-08-30 12:41:2254.9204919.89993270°95km/h1220m8.2m/s-47.2°C0%14.6hPa2.4V00:00:0000:00:0000:00:00
AA1-152026-08-30 12:41:1654.9204919.90205270°97km/h1183m8m/s-47.3°C0%14.7hPa2.4V00:00:0000:00:0000:00:00
AA1-152026-08-30 12:41:1454.9205219.90339270°95km/h1152m8m/s-47.7°C0%14.7hPa2.4V00:00:0000:00:0000:00:00
AA1-152026-08-30 12:41:1154.9205719.90485270°95km/h1129m8m/s-47.7°C0%14.8hPa2.4V00:00:0000:00:0000:00:00
AA1-152026-08-30 12:41:0854.9228119.90738258°95km/h1536m8.1m/s-47.8°C0%14.9hPa2.4V00:00:0000:00:0000:00:00
AA1-152026-08-30 12:40:2254.8832220.0406816km/h3131m8m/s-48.8°C0%15.7hPa2.4V00:00:0000:00:0000:00:00
AA1-152026-08-30 12:40:1054.8833020.0413011km/h3065m8.1m/s-49.4°C0%15.9hPa2.4V00:00:0000:00:0000:00:00
AA1-152026-08-30 12:39:5854.8827120.041899km/h159087m8.1m/s-49.7°C0%16.1hPa2.4V00:00:0000:00:0000:00:00
AA1-152026-08-30 12:39:4754.8822720.0418616km/h2897m8m/s-50°C0%16.3hPa2.4V00:00:0000:00:0000:00:00
AA1-152026-08-30 12:39:3754.8821220.0417416km/h2783m7.9m/s-50°C0%16.4hPa2.4V00:00:0000:00:0000:00:00
AA1-152026-08-30 12:39:1354.8828520.04125360°9km/h2299m8.6m/s-49.9°C0%16.9hPa2.4V00:00:0000:00:0000:00:00
AA1-152026-08-30 12:39:0354.8821120.04135360°16km/h2223m7.9m/s-50°C0%17.1hPa2.4V00:00:0000:00:0000:00:00
AA1-152026-08-30 12:38:5254.8816620.0411416km/h2103m8m/s-50.2°C0%17.3hPa2.4V00:00:0000:00:0000:00:00
AA1-152026-08-30 12:38:4154.8805320.04109357°100km/h1996m8.1m/s-50.1°C0%17.5hPa2.4V00:00:0000:00:0000:00:00
AA1-152026-08-30 12:38:3654.8794820.04122352°95km/h1959m8.1m/s-50.1°C0%17.6hPa2.4V00:00:0000:00:0000:00:00
AA1-152026-08-30 12:38:3554.8792220.04129349°95km/h1952m8.5m/s-50.1°C0%17.6hPa2.4V00:00:0000:00:0000:00:00
AA1-152026-08-30 12:38:3354.8787620.04147346°97km/h1945m8.3m/s-50.1°C0%17.6hPa2.4V00:00:0000:00:0000:00:00
AA1-152026-08-30 12:38:2754.8770320.04245334°97km/h1920m8.1m/s-50.1°C0%17.7hPa2.4V00:00:0000:00:0000:00:00
AA1-152026-08-30 12:38:1154.8741820.04656314°99km/h1790m8.2m/s-49.9°C0%18hPa2.4V00:00:0000:00:0000:00:00
AA1-152026-08-30 12:38:0554.8737220.04838303°95km/h1753m8.1m/s-49.7°C0%18.1hPa2.4V00:00:0000:00:0000:00:00
AA1-152026-08-30 12:38:0354.8734720.04910302°100km/h1741m8m/s-49.7°C0%18.2hPa2.4V00:00:0000:00:0000:00:00
AA1-152026-08-30 12:37:5654.8727720.05175288°97km/h1696m8.1m/s-49.7°C0%18.4hPa2.4V00:00:0000:00:0000:00:00
AA1-152026-08-30 12:37:5554.8726920.05215288°95km/h1689m8m/s-49.7°C0%18.4hPa2.4V00:00:0000:00:0000:00:00
AA1-152026-08-30 12:37:5254.8725120.05334281°95km/h1671m8.1m/s-49.7°C0%18.4hPa2.4V00:00:0000:00:0000:00:00
AA1-152026-08-30 12:37:4854.8723620.05493277°97km/h1645m8.2m/s-49.6°C0%18.5hPa2.4V00:00:0000:00:0000:00:00
AA1-152026-08-30 12:37:4454.8722920.05655270°95km/h1617m8.1m/s-49.6°C0%18.6hPa2.4V00:00:0000:00:0000:00:00
AA1-152026-08-30 12:37:3854.8724220.05854261°97km/h1568m8.2m/s-49.7°C0%18.7hPa2.4V00:00:0000:00:0000:00:00
AA1-152026-08-30 12:37:3654.8726020.05975256°97km/h1549m8.2m/s-49.6°C0%18.8hPa2.4V00:00:0000:00:0000:00:00
AA1-152026-08-30 12:37:3554.8726620.06017252°95km/h1543m8.1m/s-49.7°C0%18.8hPa2.4V00:00:0000:00:0000:00:00
AA1-152026-08-30 12:37:3354.8727420.06058249°97km/h1537m8.1m/s-49.7°C0%18.8hPa2.4V00:00:0000:00:0000:00:00
AA1-152026-08-30 12:37:2954.8730620.06224249°93km/h1513m7.9m/s-49.8°C0%18.9hPa2.4V00:00:0000:00:0000:00:00
AA1-152026-08-30 12:37:2854.8731720.06272246°95km/h1511m8.2m/s-49.8°C0%18.9hPa2.4V00:00:0000:00:0000:00:00
AA1-152026-08-30 12:37:2554.8734220.06428240°93km/h1499m8.1m/s-49.9°C0%18.9hPa2.4V00:00:0000:00:0000:00:00
AA1-152026-08-30 12:37:2354.8736820.06501238°93km/h1479m7.6m/s-49.9°C0%19hPa2.4V00:00:0000:00:0000:00:00
AA1-152026-08-30 12:37:2254.8739620.06571232°99km/h1458m7.7m/s-49.9°C0%19hPa2.4V00:00:0000:00:0000:00:00
AA1-152026-08-30 12:37:2154.8741120.06606235°91km/h1448m8m/s-49.9°C0%19.1hPa2.4V00:00:0000:00:0000:00:00
AA1-152026-08-30 12:37:1754.8745620.06706226°99km/h1418m8.6m/s-49.9°C0%19.1hPa2.4V00:00:0000:00:0000:00:00
AA1-152026-08-30 12:37:1654.8748920.06769224°100km/h1399m8.1m/s-49.8°C0%19.2hPa2.4V00:00:0000:00:0000:00:00
AA1-152026-08-30 12:37:1354.8753820.06859218°100km/h1370m8.6m/s-49.8°C0%19.2hPa2.4V00:00:0000:00:0000:00:00
AA1-152026-08-30 12:37:1054.8756520.06915216°100km/h1349m10.2m/s-49.8°C0%19.3hPa2.4V00:00:0000:00:0000:00:00
AA1-152026-08-30 12:37:0254.8778120.07077202°99km/h1188m8.1m/s-49.9°C0%19.4hPa2.4V00:00:0000:00:0000:00:00
AA1-152026-08-30 12:36:5954.8782920.07106200°97km/h1169m8m/s-50°C0%19.4hPa2.4V00:00:0000:00:0000:00:00
AA1-152026-08-30 12:36:5654.8790420.07141195°100km/h1138m8.2m/s-50.1°C0%19.5hPa2.4V00:00:0000:00:0000:00:00
AA1-152026-08-30 12:36:4554.8817120.07180177°97km/h1024m8.2m/s-50.7°C0%19.7hPa2.4V00:00:0000:00:0000:00:00
AA1-152026-08-30 12:36:3454.8843620.07073160°97km/h934m7.9m/s-51.1°C0%20hPa2.4V00:00:0000:00:0000:00:00
AA1-152026-08-30 12:36:3054.8852820.07001152°99km/h906m8m/s-51.1°C0%20.1hPa2.4V00:00:0000:00:0000:00:00
AA1-152026-08-30 12:36:2954.8855020.06978150°97km/h899m7.9m/s-51.3°C0%20.1hPa2.4V00:00:0000:00:0000:00:00
AA1-152026-08-30 12:36:2354.8866720.06834141°99km/h866m8.1m/s-51.6°C0%20.2hPa2.4V00:00:0000:00:0000:00:00
AA1-152026-08-30 12:36:1554.8877920.06619131°97km/h817m8m/s-51.6°C0%20.4hPa2.4V00:00:0000:00:0000:00:00
AA1-152026-08-30 12:36:1354.8881220.06561129°95km/h806m7.9m/s-51.5°C0%20.4hPa2.4V00:00:0000:00:0000:00:00
AA1-152026-08-30 12:36:1054.8885320.06455122°97km/h788m8m/s-51.5°C0%20.5hPa2.4V00:00:0000:00:0000:00:00
AA1-152026-08-30 12:36:0954.8886520.06420120°93km/h782m8.2m/s-51.5°C0%20.5hPa2.4V00:00:0000:00:0000:00:00
AA1-152026-08-30 12:35:5954.8896520.06089103°97km/h679m8m/s-51.4°C0%20.7hPa2.4V00:00:0000:00:0000:00:00
AA1-152026-08-30 12:35:5554.8899220.05924100°93km/h636m8.2m/s-51.3°C0%20.9hPa2.4V00:00:0000:00:0000:00:00
AA1-152026-08-30 12:35:5454.8900120.0587898°97km/h624m8.3m/s-51.4°C0%20.9hPa2.4V00:00:0000:00:0000:00:00
AA1-152026-08-30 12:35:5254.8900220.0578992°95km/h606m8.5m/s-51.4°C0%20.9hPa2.4V00:00:0000:00:0000:00:00
AA1-152026-08-30 12:35:4754.8898220.0554685°95km/h581m7.7m/s-51.5°C0%21hPa2.4V00:00:0000:00:0000:00:00
AA1-152026-08-30 12:35:4454.8897120.0546584°93km/h570m8.1m/s-51.5°C0%21.1hPa2.4V00:00:0000:00:0000:00:00
AA1-152026-08-30 12:35:4254.8895820.0538478°95km/h557m8.1m/s-51.5°C0%21.1hPa2.4V00:00:0000:00:0000:00:00
AA1-152026-08-30 12:35:3754.8890720.0514672°97km/h514m8m/s-51.4°C0%21.3hPa2.4V00:00:0000:00:0000:00:00
AA1-152026-08-30 12:35:3554.8889620.0510765°99km/h505m8.1m/s-51.4°C0%21.3hPa2.4V00:00:0000:00:0000:00:00
AA1-152026-08-30 12:35:3354.8886520.0503067°97km/h485m8.1m/s-51.4°C0%21.3hPa2.4V00:00:0000:00:0000:00:00
AA1-152026-08-30 12:35:3154.8884020.0496660°97km/h474m8.6m/s-51.4°C0%21.4hPa2.4V00:00:0000:00:0000:00:00
AA1-152026-08-30 12:35:2954.8881820.0490957°97km/h473m7.8m/s-51.3°C0%21.4hPa2.4V00:00:0000:00:0000:00:00
AA1-152026-08-30 12:35:2854.8880320.0487658°93km/h466m8.1m/s-51.4°C0%21.5hPa2.4V00:00:0000:00:0000:00:00
AA1-152026-08-30 12:35:2654.8874920.0478054°99km/h447m8.6m/s-51.3°C0%21.6hPa2.4V00:00:0000:00:0000:00:00
AA1-152026-08-30 12:35:2554.8873120.0474660°100km/h440m14.7m/s-51.2°C0%21.6hPa2.4V00:00:0000:00:0000:00:00
AA1-152026-08-30 12:35:2254.8869820.0467846°99km/h424m8m/s-51.2°C0%21.6hPa2.4V00:00:0000:00:0000:00:00
AA1-152026-08-30 12:35:1854.8863020.0455341°93km/h386m8.1m/s-51.2°C0%21.7hPa2.4V00:00:0000:00:0000:00:00
AA1-152026-08-30 12:35:1754.8861320.0452138°95km/h374m8.2m/s-51.2°C0%21.7hPa2.4V00:00:0000:00:0000:00:00
AA1-152026-08-30 12:35:1654.8859620.0449239°95km/h362m8m/s-51.1°C0%21.7hPa2.4V00:00:0000:00:0000:00:00
AA1-152026-08-30 12:35:1554.8856220.0443435°97km/h336m8m/s-51.2°C0%21.8hPa2.4V00:00:0000:00:0000:00:00
AA1-152026-08-30 12:35:1354.8854520.0440332°100km/h320m8m/s-51.1°C0%21.8hPa2.4V00:00:0000:00:0000:00:00
AA1-152026-08-30 12:35:1254.8855620.0426930°95km/h226m7.9m/s-51.1°C0%21.8hPa2.4V00:00:0000:00:0000:00:00
AA1-152026-08-30 12:35:0954.8843620.0417121°120km/h294m2.7m/s-51.1°C0%21.9hPa2.4V00:00:0000:00:0000:00:00
AA1-152026-08-30 12:34:5854.9519019.261570km/h159087m0m/s-50.9°C0%22.1hPa2.3V00:00:0000:00:0000:00:00
AA1-152026-08-30 12:34:4854.9519019.26185270°13km/h159087m8.2m/s-50.8°C0%22.3hPa2.3V00:00:0000:00:0000:00:00
AA1-152026-08-30 12:34:3754.9518819.26246270°13km/h2429m8.1m/s-50.8°C0%22.5hPa2.3V00:00:0000:00:0000:00:00
AA1-152026-08-30 12:34:2654.9518419.26324270°16km/h2384m7.7m/s-50.9°C0%22.8hPa2.3V00:00:0000:00:0000:00:00
AA1-152026-08-30 12:34:1754.9519219.26405269°13km/h2352m8.1m/s-50.8°C0%23hPa2.2V00:00:0000:00:0000:00:00
AA1-152026-08-30 12:34:0654.9519119.26471270°16km/h2253m8m/s-50.8°C0%23.2hPa2.2V00:00:0000:00:0000:00:00
AA1-152026-08-30 12:33:5454.9520819.26525271°16km/h159087m7.8m/s-51.1°C0%23.5hPa2.2V00:00:0000:00:0000:00:00
AA1-152026-08-30 12:33:4454.9523019.26620269°13km/h159087m8.4m/s-51.3°C0%23.7hPa2.2V00:00:0000:00:0000:00:00
AA1-152026-08-30 12:33:3454.9520119.26682271°13km/h1989m8.3m/s-51.8°C0%23.9hPa2.2V00:00:0000:00:0000:00:00
AA1-152026-08-30 12:33:3254.9519619.26693273°13km/h1964m8.4m/s-51.8°C0%24hPa2.2V00:00:0000:00:0000:00:00
AA1-152026-08-30 12:33:2654.9518719.26727270°16km/h1892m8.1m/s-52°C0%24.1hPa2.2V00:00:0000:00:0000:00:00
AA1-152026-08-30 12:33:2554.9518519.26733271°13km/h1879m8m/s-52°C0%24.2hPa2.2V00:00:0000:00:0000:00:00
AA1-152026-08-30 12:33:2254.9518519.26743269°13km/h1857m8.1m/s-52°C0%24.2hPa2.2V00:00:0000:00:0000:00:00
AA1-152026-08-30 12:33:2054.9518519.26752270°13km/h1834m8.3m/s-52.1°C0%24.2hPa2.2V00:00:0000:00:0000:00:00
AA1-152026-08-30 12:33:1854.9518519.26759271°16km/h1811m8.1m/s-52.1°C0%24.3hPa2.2V00:00:0000:00:0000:00:00
AA1-152026-08-30 12:33:1754.9518619.26773270°13km/h1782m7.9m/s-52.2°C0%24.4hPa2.2V00:00:0000:00:0000:00:00
AA1-152026-08-30 12:33:1354.9518619.26782270°16km/h1761m8m/s-52.2°C0%24.4hPa2.2V00:00:0000:00:0000:00:00
AA1-152026-08-30 12:33:1154.9518519.26794269°16km/h1739m8.2m/s-52.3°C0%24.4hPa2.2V00:00:0000:00:0000:00:00
AA1-152026-08-30 12:33:0754.9518519.26820271°15km/h1711m8m/s-52.4°C0%24.6hPa2.2V00:00:0000:00:0000:00:00
AA1-152026-08-30 12:33:0554.9518519.26836270°16km/h1687m8m/s-52.4°C0%24.6hPa2.2V00:00:0000:00:0000:00:00
AA1-152026-08-30 12:33:0254.9518619.26844270°15km/h1674m8m/s-52.4°C0%24.6hPa2.2V00:00:0000:00:0000:00:00
AA1-152026-08-30 12:33:0054.9518619.26854275°15km/h1660m4m/s-52.4°C0%24.7hPa2.2V00:00:0000:00:0000:00:00
AA1-152026-08-30 12:32:5754.9518719.26886270°13km/h1685m8m/s-52.5°C0%24.8hPa2.2V00:00:0000:00:0000:00:00
AA1-152026-08-30 12:32:5354.9518919.26906269°13km/h1679m8.2m/s-52.6°C0%24.9hPa2.2V00:00:0000:00:0000:00:00
AA1-152026-08-30 12:32:4954.9518919.26924270°13km/h1644m7.9m/s-52.5°C0%25hPa2.2V00:00:0000:00:0000:00:00
AA1-152026-08-30 12:32:4454.9519219.26962270°16km/h1639m8.1m/s-52.5°C0%25.1hPa2.2V00:00:0000:00:0000:00:00
AA1-152026-08-30 12:32:4154.9519219.26976268°15km/h1632m6.7m/s-52.6°C0%25.2hPa2.2V00:00:0000:00:0000:00:00
AA1-152026-08-30 12:32:3654.9521419.27161248°95km/h1607m7.9m/s-52.6°C0%25.3hPa2.2V00:00:0000:00:0000:00:00
AA1-152026-08-30 12:32:3254.9528919.27325221°97km/h1580m7.9m/s-52.7°C0%25.4hPa2.2V00:00:0000:00:0000:00:00
AA1-152026-08-30 12:32:2954.9533819.27386208°93km/h1576m7.9m/s-52.7°C0%25.4hPa2.2V00:00:0000:00:0000:00:00
AA1-152026-08-30 12:32:2454.9551719.27458164°100km/h1515m8.2m/s-52.7°C0%25.6hPa2.2V00:00:0000:00:0000:00:00
AA1-152026-08-30 12:32:2354.9553919.27440157°100km/h1503m8.2m/s-52.7°C0%25.6hPa2.2V00:00:0000:00:0000:00:00
AA1-152026-08-30 12:32:1954.9557619.27386145°97km/h1479m8.3m/s-52.8°C0%25.7hPa2.2V00:00:0000:00:0000:00:00
AA1-152026-08-30 12:32:1854.9560819.27326131°93km/h1459m8.2m/s-52.7°C0%25.7hPa2.2V00:00:0000:00:0000:00:00
AA1-152026-08-30 12:32:1254.9566119.27141105°100km/h1434m8m/s-52.7°C0%25.9hPa2.2V00:00:0000:00:0000:00:00
AA1-152026-08-30 12:32:0954.9566719.2701286°95km/h1415m8.1m/s-52.7°C0%26hPa2.2V00:00:0000:00:0000:00:00
AA1-152026-08-30 12:32:0654.9564919.2688669°91km/h1397m8.3m/s-52.8°C0%26.1hPa2.2V00:00:0000:00:0000:00:00
AA1-152026-08-30 12:32:0354.9554619.2668030°97km/h1372m8.1m/s-52.8°C0%26.2hPa2.2V00:00:0000:00:0000:00:00
AA1-152026-08-30 12:32:0154.9552419.2666024°95km/h1370m8.1m/s-52.8°C0%26.3hPa2.2V00:00:0000:00:0000:00:00
AA1-152026-08-30 12:31:5954.9550019.2664419°95km/h1370m8.1m/s-52.8°C0%26.3hPa2.2V00:00:0000:00:0000:00:00
AA1-152026-08-30 12:31:5654.9545119.2662697km/h1371m7.4m/s-52.8°C0%26.3hPa2.2V00:00:0000:00:0000:00:00
AA1-152026-08-30 12:31:5554.9540319.2661995km/h1365m7.9m/s-52.9°C0%26.4hPa2.2V00:00:0000:00:0000:00:00
AA1-152026-08-30 12:31:5354.9537819.26617100km/h1358m8m/s-52.9°C0%26.4hPa2.2V00:00:0000:00:0000:00:00
AA1-152026-08-30 12:31:5254.9532819.26612100km/h1343m7.5m/s-52.9°C0%26.4hPa2.2V00:00:0000:00:0000:00:00
AA1-152026-08-30 12:31:5054.9527619.26617100km/h1319m7.7m/s-52.9°C0%26.5hPa2.2V00:00:0000:00:0000:00:00
AA1-152026-08-30 12:31:4754.9522319.2662295km/h1291m8.1m/s-52.9°C0%26.6hPa2.2V00:00:0000:00:0000:00:00
AA1-152026-08-30 12:31:4554.9517519.2662195km/h1274m7.5m/s-52.9°C0%26.6hPa2.2V00:00:0000:00:0000:00:00
AA1-152026-08-30 12:31:4454.9515319.2662191km/h1271m6.6m/s-52.9°C0%26.6hPa2.2V00:00:0000:00:0000:00:00
AA1-152026-08-30 12:31:4154.9503519.2662195km/h1274m7.9m/s-52.9°C0%26.8hPa2.1V00:00:0000:00:0000:00:00
AA1-152026-08-30 12:31:4054.9501119.26622100km/h1273m7.9m/s-52.8°C0%26.8hPa2.1V00:00:0000:00:0000:00:00
AA1-152026-08-30 12:31:3854.9498619.26624360°93km/h1273m7.8m/s-52.8°C0%26.9hPa2.2V00:00:0000:00:0000:00:00
AA1-152026-08-30 12:31:3554.9493919.2660926°99km/h1268m7.7m/s-52.9°C0%26.9hPa2.1V00:00:0000:00:0000:00:00
AA1-152026-08-30 12:31:3554.9491819.2658643°100km/h1273m7.9m/s-52.8°C0%26.9hPa2.1V00:00:0000:00:0000:00:00
AA1-152026-08-30 12:31:3154.9489419.26477100°93km/h1281m7.5m/s-52.9°C0%27hPa2.1V00:00:0000:00:0000:00:00
AA1-152026-08-30 12:31:3054.9491519.26410133°95km/h1292m8.1m/s-52.9°C0%27.1hPa2.2V00:00:0000:00:0000:00:00
AA1-152026-08-30 12:31:2854.9495519.26377169°97km/h1292m8.2m/s-52.9°C0%27.1hPa2.2V00:00:0000:00:0000:00:00
AA1-152026-08-30 12:31:2754.9497819.26379189°89km/h1298m8m/s-52.9°C0%27.1hPa2.2V00:00:0000:00:0000:00:00
AA1-152026-08-30 12:31:2554.9500019.26396206°100km/h1308m7.5m/s-52.9°C0%27.2hPa2.2V00:00:0000:00:0000:00:00
AA1-152026-08-30 12:31:2454.9501919.26429224°97km/h1327m6.7m/s-52.9°C0%27.2hPa2.2V00:00:0000:00:0000:00:00
AA1-152026-08-30 12:31:2254.9504419.26555270°95km/h1347m8m/s-52.8°C0%27.3hPa2.2V00:00:0000:00:0000:00:00
AA1-152026-08-30 12:31:2054.9503519.26711270°100km/h1444m7.7m/s-52.8°C0%27.3hPa2.2V00:00:0000:00:0000:00:00
AA1-152026-08-30 12:31:1554.9502719.26908269°93km/h1506m8.2m/s-52.7°C0%27.5hPa2.1V00:00:0000:00:0000:00:00
AA1-152026-08-30 12:31:1354.9504019.27036270°100km/h1445m7.8m/s-52.7°C0%27.5hPa2.2V00:00:0000:00:0000:00:00
AA1-152026-08-30 12:31:0654.9521319.27384256°93km/h1537m7.9m/s-52.5°C0%27.7hPa2.2V00:00:0000:00:0000:00:00
AA1-152026-08-30 12:31:0354.9529219.27527237°95km/h1678m7.9m/s-52.6°C0%27.8hPa2.1V00:00:0000:00:0000:00:00
AA1-152026-08-30 12:30:5655.0831119.728870km/h159087m0m/s-52.5°C0%27.9hPa2.1V00:00:0000:00:0000:00:00
AA1-152026-08-30 12:30:4655.0831119.72944270°13km/h159087m8m/s-52.2°C0%28.3hPa2.1V00:00:0000:00:0000:00:00
AA1-152026-08-30 12:30:3555.0831519.72998270°15km/h2769m8.1m/s-52.1°C0%28.6hPa2.1V00:00:0000:00:0000:00:00
AA1-152026-08-30 12:30:2455.0830819.73075270°16km/h2705m8m/s-52.2°C0%28.9hPa2.1V00:00:0000:00:0000:00:00
AA1-152026-08-30 12:30:1355.0831719.73149270°13km/h2623m7.8m/s-52.2°C0%29.2hPa2.1V00:00:0000:00:0000:00:00
AA1-152026-08-30 12:30:0255.0832519.73214270°16km/h2555m8.1m/s-52°C0%29.5hPa2.1V00:00:0000:00:0000:00:00
AA1-152026-08-30 12:29:5155.0839119.73237268°13km/h2427m8m/s-52.1°C0%29.8hPa2.1V00:00:0000:00:0000:00:00
AA1-152026-08-30 12:29:4055.0836719.73345268°16km/h2369m8.4m/s-52.2°C0%30.1hPa2.1V00:00:0000:00:0000:00:00
AA1-152026-08-30 12:29:2955.0833319.73410269°13km/h2271m8.2m/s-52.1°C0%30.5hPa2.1V00:00:0000:00:0000:00:00
AA1-152026-08-30 12:29:1955.0829219.73482270°13km/h2197m7.8m/s-52.1°C0%30.8hPa2.1V00:00:0000:00:0000:00:00
AA1-152026-08-30 12:29:0855.0829119.73560276°18km/h2069m8.6m/s-52°C0%31.1hPa2.1V00:00:0000:00:0000:00:00
AA1-152026-08-30 12:28:5855.0829419.73632269°13km/h1989m8m/s-52.2°C0%31.4hPa2.1V00:00:0000:00:0000:00:00
AA1-152026-08-30 12:28:5655.0829319.73638268°15km/h1981m7.8m/s-52.2°C0%31.4hPa2.1V00:00:0000:00:0000:00:00
AA1-152026-08-30 12:28:5355.0829619.73650270°13km/h1961m7.9m/s-52.2°C0%31.5hPa2.1V00:00:0000:00:0000:00:00
AA1-152026-08-30 12:28:5055.0830119.73665271°16km/h1928m8m/s-52.3°C0%31.6hPa2.1V00:00:0000:00:0000:00:00
AA1-152026-08-30 12:28:4555.0831019.73694270°16km/h1877m8.3m/s-52.5°C0%31.8hPa2.1V00:00:0000:00:0000:00:00
AA1-152026-08-30 12:28:4455.0831219.73699271°13km/h1865m8.1m/s-52.5°C0%31.8hPa2.1V00:00:0000:00:0000:00:00
AA1-152026-08-30 12:28:4355.0831319.73703270°13km/h1855m8.1m/s-52.5°C0%31.8hPa2.1V00:00:0000:00:0000:00:00
AA1-152026-08-30 12:28:4255.0831119.73716277°20km/h1838m6.9m/s-52.6°C0%31.9hPa2.1V00:00:0000:00:0000:00:00
AA1-152026-08-30 12:28:4055.0830919.73742269°95km/h1831m8m/s-52.6°C0%31.9hPa2.1V00:00:0000:00:0000:00:00
AA1-152026-08-30 12:28:3955.0831119.73784261°97km/h1822m8m/s-52.6°C0%31.9hPa2.1V00:00:0000:00:0000:00:00
AA1-152026-08-30 12:28:3855.0831719.73825253°97km/h1813m8.1m/s-52.6°C0%32hPa2.1V00:00:0000:00:0000:00:00
AA1-152026-08-30 12:28:3755.0832419.73865249°95km/h1803m8.2m/s-52.6°C0%32hPa2.1V00:00:0000:00:0000:00:00
AA1-152026-08-30 12:28:3555.0834319.73938238°93km/h1786m7.9m/s-52.6°C0%32hPa2.1V00:00:0000:00:0000:00:00
AA1-152026-08-30 12:28:3355.0836319.74003225°93km/h1774m8.1m/s-52.6°C0%32.1hPa2.1V00:00:0000:00:0000:00:00
AA1-152026-08-30 12:28:3255.0837419.74030219°95km/h1766m8.1m/s-52.6°C0%32.2hPa2.1V00:00:0000:00:0000:00:00
AA1-152026-08-30 12:28:3155.0838719.74055213°100km/h1759m8.2m/s-52.6°C0%32.2hPa2.1V00:00:0000:00:0000:00:00
AA1-152026-08-30 12:28:2955.0842619.74090201°97km/h1740m8m/s-52.6°C0%32.2hPa2.1V00:00:0000:00:0000:00:00
AA1-152026-08-30 12:28:2855.0844819.74102193°99km/h1731m8m/s-52.6°C0%32.2hPa2.1V00:00:0000:00:0000:00:00
AA1-152026-08-30 12:28:2655.0849419.74111182°100km/h1713m8.1m/s-52.7°C0%32.3hPa2.1V00:00:0000:00:0000:00:00
AA1-152026-08-30 12:28:2555.0851719.74111177°97km/h1706m7.5m/s-52.7°C0%32.4hPa2.1V00:00:0000:00:0000:00:00
AA1-152026-08-30 12:28:2255.0858119.74077159°99km/h1680m8m/s-52.7°C0%32.5hPa2.1V00:00:0000:00:0000:00:00
AA1-152026-08-30 12:28:2155.0859919.74057151°93km/h1670m8m/s-52.7°C0%32.5hPa2.1V00:00:0000:00:0000:00:00
AA1-152026-08-30 12:28:2055.0861319.74031146°97km/h1659m8.1m/s-52.7°C0%32.5hPa2.1V00:00:0000:00:0000:00:00
AA1-152026-08-30 12:28:1855.0861219.73976131°93km/h1636m8.1m/s-52.6°C0%32.6hPa2.1V00:00:0000:00:0000:00:00
AA1-152026-08-30 12:28:1755.0862619.73945126°95km/h1632m8.3m/s-52.6°C0%32.6hPa2.1V00:00:0000:00:0000:00:00
AA1-152026-08-30 12:28:1455.0865619.73837110°95km/h1621m8m/s-52.6°C0%32.7hPa2.1V00:00:0000:00:0000:00:00
AA1-152026-08-30 12:28:1355.0866419.73798105°99km/h1617m8.1m/s-52.6°C0%32.7hPa2.1V00:00:0000:00:0000:00:00
AA1-152026-08-30 12:28:1155.0867519.7371894°95km/h1605m8.1m/s-52.5°C0%32.8hPa2.1V00:00:0000:00:0000:00:00
AA1-152026-08-30 12:28:1055.0867719.7367786°95km/h1596m8.2m/s-52.5°C0%32.8hPa2.1V00:00:0000:00:0000:00:00
AA1-152026-08-30 12:28:0855.0867219.7359574°95km/h1578m8m/s-52.6°C0%32.9hPa2.1V00:00:0000:00:0000:00:00
AA1-152026-08-30 12:28:0755.0866519.7355769°91km/h1569m8m/s-52.6°C0%32.9hPa2.1V00:00:0000:00:0000:00:00
AA1-152026-08-30 12:28:0655.0865619.7352060°93km/h1561m8.2m/s-52.6°C0%32.9hPa2.1V00:00:0000:00:0000:00:00
AA1-152026-08-30 12:28:0455.0863119.7345249°97km/h1545m8.2m/s-52.5°C0%33hPa2.1V00:00:0000:00:0000:00:00
AA1-152026-08-30 12:28:0355.0861419.7342342°95km/h1538m8m/s-52.5°C0%33hPa2.1V00:00:0000:00:0000:00:00
AA1-152026-08-30 12:28:0255.0859619.7339736°91km/h1531m8m/s-52.5°C0%33hPa2.1V00:00:0000:00:0000:00:00
AA1-152026-08-30 12:28:0155.0857519.7337530°97km/h1523m8m/s-52.5°C0%33.1hPa2.1V00:00:0000:00:0000:00:00
AA1-152026-08-30 12:28:0055.0855419.7335526°97km/h1515m8.1m/s-52.5°C0%33.1hPa2.1V00:00:0000:00:0000:00:00
AA1-152026-08-30 12:27:5955.0853019.7333919°95km/h1508m8.1m/s-52.5°C0%33.1hPa2.1V00:00:0000:00:0000:00:00
AA1-152026-08-30 12:27:5755.0848219.7332295km/h1495m8.1m/s-52.6°C0%33.2hPa2.1V00:00:0000:00:0000:00:00
AA1-152026-08-30 12:27:5655.0845919.7332093km/h1487m8.1m/s-52.7°C0%33.2hPa2.1V00:00:0000:00:0000:00:00
AA1-152026-08-30 12:27:5455.0841219.73319100km/h1472m8.1m/s-52.7°C0%33.3hPa2.1V00:00:0000:00:0000:00:00
AA1-152026-08-30 12:27:5355.0838819.7331995km/h1465m8m/s-52.7°C0%33.4hPa2.1V00:00:0000:00:0000:00:00
AA1-152026-08-30 12:27:5255.0836219.73319100km/h1461m8m/s-52.7°C0%33.4hPa2.1V00:00:0000:00:0000:00:00
AA1-152026-08-30 12:27:5055.0831119.73320100km/h1452m8m/s-52.6°C0%33.4hPa2.1V00:00:0000:00:0000:00:00
AA1-152026-08-30 12:27:4955.0828819.73320360°93km/h1444m8m/s-52.7°C0%33.5hPa2.1V00:00:0000:00:0000:00:00
AA1-152026-08-30 12:27:4755.0824419.7331993km/h1429m8.1m/s-52.6°C0%33.5hPa2.1V00:00:0000:00:0000:00:00
AA1-152026-08-30 12:27:4555.0818219.7331695km/h1408m8.2m/s-52.5°C0%33.6hPa2.1V00:00:0000:00:0000:00:00
AA1-152026-08-30 12:27:4455.0816319.73315100km/h1401m8.2m/s-52.4°C0%33.6hPa2.1V00:00:0000:00:0000:00:00
AA1-152026-08-30 12:27:4255.0814319.7331495km/h1393m8.1m/s-52.4°C0%33.7hPa2.1V00:00:0000:00:0000:00:00
AA1-152026-08-30 12:27:4155.0812319.73313100km/h1384m8m/s-52.4°C0%33.7hPa2.1V00:00:0000:00:0000:00:00
AA1-152026-08-30 12:27:3955.0808419.73310100km/h1366m8m/s-52.3°C0%33.8hPa2.1V00:00:0000:00:0000:00:00
AA1-152026-08-30 12:27:3755.0804219.7330797km/h1355m8.1m/s-52.4°C0%33.9hPa2.1V00:00:0000:00:0000:00:00
AA1-152026-08-30 12:27:3555.0799519.7327143°100km/h1353m8.1m/s-52.4°C0%33.9hPa2.1V00:00:0000:00:0000:00:00
AA1-152026-08-30 12:27:3455.0797419.7323758°97km/h1352m8.1m/s-52.5°C0%34hPa2.1V00:00:0000:00:0000:00:00
AA1-152026-08-30 12:27:3255.0796319.7315399°97km/h1345m8m/s-52.5°C0%34hPa2.1V00:00:0000:00:0000:00:00
AA1-152026-08-30 12:27:3155.0796819.73110116°97km/h1337m8m/s-52.6°C0%34hPa2.1V00:00:0000:00:0000:00:00
AA1-152026-08-30 12:27:3055.0798119.73073134°95km/h1329m8.1m/s-52.6°C0%34.1hPa2.1V00:00:0000:00:0000:00:00
AA1-152026-08-30 12:27:2855.0802119.73030171°95km/h1315m8.2m/s-52.6°C0%34.2hPa2.1V00:00:0000:00:0000:00:00
AA1-152026-08-30 12:27:2755.0804119.73025189°89km/h1308m8.1m/s-52.6°C0%34.2hPa2.1V00:00:0000:00:0000:00:00
AA1-152026-08-30 12:27:2555.0807819.73058224°95km/h1293m7.9m/s-52.7°C0%34.2hPa2.1V00:00:0000:00:0000:00:00
AA1-152026-08-30 12:27:2455.0809019.73089242°97km/h1287m7.9m/s-52.7°C0%34.3hPa2.1V00:00:0000:00:0000:00:00
AA1-152026-08-30 12:27:2255.0808619.73165270°95km/h1278m8m/s-52.8°C0%34.3hPa2.1V00:00:0000:00:0000:00:00
AA1-152026-08-30 12:27:2155.0808219.73204270°95km/h1275m8.2m/s-52.9°C0%34.4hPa2.1V00:00:0000:00:0000:00:00
AA1-152026-08-30 12:27:2055.0807819.73242270°99km/h1276m8m/s-53°C0%34.4hPa2.1V00:00:0000:00:0000:00:00
AA1-152026-08-30 12:27:1855.0806719.73319270°95km/h1272m8.1m/s-53.1°C0%34.5hPa2.1V00:00:0000:00:0000:00:00
AA1-152026-08-30 12:27:1755.0805919.73354270°95km/h1270m7.6m/s-53.1°C0%34.5hPa2.1V00:00:0000:00:0000:00:00
AA1-152026-08-30 12:27:1655.0804919.73389270°99km/h1270m7.5m/s-53.2°C0%34.5hPa2.1V00:00:0000:00:0000:00:00
AA1-152026-08-30 12:27:1555.0802519.73458268°93km/h1273m5.9m/s-53.2°C0%34.6hPa2.1V00:00:0000:00:0000:00:00
AA1-152026-08-30 12:27:1355.0802019.73493270°95km/h1284m7.7m/s-53.2°C0%34.6hPa2.1V00:00:0000:00:0000:00:00
AA1-152026-08-30 12:27:1155.0798519.73547270°99km/h1307m7.8m/s-53.3°C0%34.7hPa2.1V00:00:0000:00:0000:00:00
AA1-152026-08-30 12:27:1055.0796319.73570270°95km/h1326m8m/s-53.3°C0%34.8hPa2.1V00:00:0000:00:0000:00:00
AA1-152026-08-30 12:27:0955.0793719.73589271°93km/h1352m7.7m/s-53.3°C0%34.8hPa2.1V00:00:0000:00:0000:00:00
AA1-152026-08-30 12:27:0755.0790019.73640262°95km/h1372m7.9m/s-53.3°C0%34.9hPa2.1V00:00:0000:00:0000:00:00
AA1-152026-08-30 12:27:0555.0782119.73649247°97km/h1460m7.9m/s-53.2°C0%35hPa2.1V00:00:0000:00:0000:00:00
AA1-152026-08-30 12:27:0455.0774119.73610237°93km/h1570m7.9m/s-53.2°C0%35hPa2.1V00:00:0000:00:0000:00:00
AA1-152026-08-30 12:27:0355.0761319.73514228°93km/h1787m8.1m/s-53.3°C0%35hPa2.1V00:00:0000:00:0000:00:00
AA1-152026-08-30 12:26:5754.9225519.89541202°18km/h159087m12.1m/s-53.3°C0%35.2hPa2.3V00:00:0000:00:0000:00:00
AA1-152026-08-30 12:26:4754.9229819.89571202°18km/h2765m12.1m/s-53.1°C0%35.5hPa2.3V00:00:0000:00:0000:00:00
AA1-152026-08-30 12:26:3654.9229419.89644270°13km/h2652m8.2m/s-53°C0%35.9hPa2.3V00:00:0000:00:0000:00:00
AA1-152026-08-30 12:26:2554.9228119.89705270°13km/h2554m8m/s-53.1°C0%36.2hPa2.3V00:00:0000:00:0000:00:00
AA1-152026-08-30 12:26:1554.9227319.89763271°15km/h2457m8.1m/s-53°C0%36.6hPa2.3V00:00:0000:00:0000:00:00
AA1-152026-08-30 12:26:0454.9224919.89817270°13km/h2401m8m/s-52.9°C0%36.9hPa2.3V00:00:0000:00:0000:00:00
AA1-152026-08-30 12:25:5354.9222219.89937267°15km/h2352m8m/s-52.7°C0%37.3hPa2.3V00:00:0000:00:0000:00:00
AA1-152026-08-30 12:25:4254.9223619.90003271°16km/h2248m8m/s-52.9°C0%37.6hPa2.3V00:00:0000:00:0000:00:00
AA1-152026-08-30 12:25:3254.9224619.90061268°15km/h2152m7.9m/s-52.9°C0%38hPa2.3V00:00:0000:00:0000:00:00
AA1-152026-08-30 12:25:2254.9221919.90122268°13km/h2041m8.3m/s-53°C0%38.3hPa2.3V00:00:0000:00:0000:00:00
AA1-152026-08-30 12:25:1254.9227519.90197269°13km/h1983m8.1m/s-53.2°C0%38.7hPa2.3V00:00:0000:00:0000:00:00
AA1-152026-08-30 12:25:0954.9227419.90209270°13km/h1966m8.2m/s-53.3°C0%38.8hPa2.3V00:00:0000:00:0000:00:00
AA1-152026-08-30 12:25:0854.9227519.90216270°16km/h1958m8.1m/s-53.2°C0%38.8hPa2.3V00:00:0000:00:0000:00:00
AA1-152026-08-30 12:25:0754.9227619.90222269°13km/h1950m8.2m/s-53.3°C0%38.8hPa2.3V00:00:0000:00:0000:00:00
AA1-152026-08-30 12:25:0654.9227819.90234270°13km/h1934m7.9m/s-53.3°C0%38.9hPa2.3V00:00:0000:00:0000:00:00
AA1-152026-08-30 12:25:0454.9228019.90244270°13km/h1917m8.3m/s-53.4°C0%39hPa2.3V00:00:0000:00:0000:00:00
AA1-152026-08-30 12:25:0354.9227819.90249271°15km/h1908m8.1m/s-53.4°C0%39hPa2.3V00:00:0000:00:0000:00:00
AA1-152026-08-30 12:25:0154.9227519.90252269°13km/h1900m8.1m/s-53.4°C0%39hPa2.3V00:00:0000:00:0000:00:00
AA1-152026-08-30 12:25:0154.9227419.90256268°15km/h1893m8.1m/s-53.4°C0%39.1hPa2.3V00:00:0000:00:0000:00:00
AA1-152026-08-30 12:24:5854.9227119.90264268°15km/h1880m8.2m/s-53.4°C0%39.1hPa2.3V00:00:0000:00:0000:00:00
AA1-152026-08-30 12:24:5654.9227419.90271268°15km/h1869m8.2m/s-53.3°C0%39.2hPa2.3V00:00:0000:00:0000:00:00
AA1-152026-08-30 12:24:5454.9226319.90282270°13km/h1847m8m/s-53.3°C0%39.4hPa2.3V00:00:0000:00:0000:00:00
AA1-152026-08-30 12:24:5154.9226119.90289270°16km/h1840m8.1m/s-53.3°C0%39.4hPa2.3V00:00:0000:00:0000:00:00
AA1-152026-08-30 12:24:5054.9226019.90295268°13km/h1832m8.3m/s-53.3°C0%39.4hPa2.3V00:00:0000:00:0000:00:00
AA1-152026-08-30 12:24:4754.9225319.90313269°16km/h1810m8m/s-53.2°C0%39.5hPa2.3V00:00:0000:00:0000:00:00
AA1-152026-08-30 12:24:4554.9225619.90322270°16km/h1797m8.2m/s-53.2°C0%39.6hPa2.3V00:00:0000:00:0000:00:00
AA1-152026-08-30 12:24:4354.9226419.90304270°11km/h1781m9.6m/s-53.2°C0%39.7hPa2.3V00:00:0000:00:0000:00:00
AA1-152026-08-30 12:24:4054.9226219.90347269°95km/h1793m8.2m/s-53.2°C0%39.8hPa2.3V00:00:0000:00:0000:00:00
AA1-152026-08-30 12:24:3854.9226319.90424253°99km/h1780m8.3m/s-53.2°C0%39.8hPa2.3V00:00:0000:00:0000:00:00
AA1-152026-08-30 12:24:3754.9226719.90464248°95km/h1774m8m/s-53.1°C0%39.9hPa2.3V00:00:0000:00:0000:00:00
AA1-152026-08-30 12:24:3654.9227319.90498240°97km/h1768m8m/s-53.1°C0%39.9hPa2.3V00:00:0000:00:0000:00:00
AA1-152026-08-30 12:24:3554.9227919.90538239°93km/h1763m7.4m/s-53.1°C0%40hPa2.3V00:00:0000:00:0000:00:00
AA1-152026-08-30 12:24:3554.9228419.90578234°95km/h1759m7.4m/s-53°C0%40hPa2.3V00:00:0000:00:0000:00:00
AA1-152026-08-30 12:24:3354.9229319.90615227°95km/h1754m7.8m/s-53.1°C0%40hPa2.3V00:00:0000:00:0000:00:00
AA1-152026-08-30 12:24:3254.9230619.90648218°95km/h1750m8.3m/s-53.1°C0%40hPa2.3V00:00:0000:00:0000:00:00
AA1-152026-08-30 12:24:3154.9234019.90701207°91km/h1743m8.1m/s-53°C0%40.1hPa2.3V00:00:0000:00:0000:00:00
AA1-152026-08-30 12:24:2954.9235819.90722199°97km/h1739m8.1m/s-53°C0%40.1hPa2.3V00:00:0000:00:0000:00:00
AA1-152026-08-30 12:24:2754.9237819.90784189°97km/h1741m8.1m/s-53°C0%40.3hPa2.3V00:00:0000:00:0000:00:00
AA1-152026-08-30 12:24:2654.9240219.90788182°100km/h1738m8m/s-53°C0%40.3hPa2.3V00:00:0000:00:0000:00:00
AA1-152026-08-30 12:24:2554.9242619.90787176°95km/h1729m8.1m/s-53°C0%40.3hPa2.3V00:00:0000:00:0000:00:00
AA1-152026-08-30 12:24:2454.9245019.90783171°95km/h1720m8m/s-52.9°C0%40.3hPa2.3V00:00:0000:00:0000:00:00
AA1-152026-08-30 12:24:2354.9249519.90760159°99km/h1700m8m/s-52.9°C0%40.4hPa2.3V00:00:0000:00:0000:00:00
AA1-152026-08-30 12:24:2154.9253619.90720146°97km/h1682m8m/s-52.9°C0%40.5hPa2.3V00:00:0000:00:0000:00:00
AA1-152026-08-30 12:24:1954.9255419.90694140°100km/h1673m7.9m/s-52.9°C0%40.5hPa2.3V00:00:0000:00:0000:00:00
AA1-152026-08-30 12:24:1754.9258319.90632127°91km/h1654m8.1m/s-52.9°C0%40.6hPa2.3V00:00:0000:00:0000:00:00
AA1-152026-08-30 12:24:1654.9259419.90596118°97km/h1643m8m/s-52.9°C0%40.6hPa2.3V00:00:0000:00:0000:00:00
AA1-152026-08-30 12:24:1554.9260319.90557114°99km/h1632m8.2m/s-52.9°C0%40.6hPa2.3V00:00:0000:00:0000:00:00
AA1-152026-08-30 12:24:1354.9262519.90479105°97km/h1619m8.3m/s-52.9°C0%40.7hPa2.3V00:00:0000:00:0000:00:00
AA1-152026-08-30 12:24:1154.9263519.9039994°95km/h1610m8.1m/s-52.8°C0%40.8hPa2.3V00:00:0000:00:0000:00:00
AA1-152026-08-30 12:24:1054.9263219.9031978°99km/h1602m8.1m/s-52.7°C0%40.9hPa2.3V00:00:0000:00:0000:00:00
AA1-152026-08-30 12:24:0954.9262719.9028074°95km/h1599m8.2m/s-52.7°C0%40.9hPa2.3V00:00:0000:00:0000:00:00
AA1-152026-08-30 12:24:0654.9261119.9020760°93km/h1593m8.4m/s-52.6°C0%41hPa2.3V00:00:0000:00:0000:00:00
AA1-152026-08-30 12:24:0454.9258519.9014549°93km/h1588m8.2m/s-52.5°C0%41.1hPa2.3V00:00:0000:00:0000:00:00
AA1-152026-08-30 12:24:0354.9254919.9009336°91km/h1576m8.1m/s-52.5°C0%41.1hPa2.3V00:00:0000:00:0000:00:00
AA1-152026-08-30 12:24:0154.9252919.9007030°97km/h1567m8m/s-52.5°C0%41.1hPa2.3V00:00:0000:00:0000:00:00
AA1-152026-08-30 12:24:0054.9246119.9002413°97km/h1537m7.9m/s-52.4°C0%41.3hPa2.3V00:00:0000:00:0000:00:00
AA1-152026-08-30 12:23:5854.9243619.9001795km/h1527m7.9m/s-52.4°C0%41.3hPa2.3V00:00:0000:00:0000:00:00
AA1-152026-08-30 12:23:5654.9241219.9001593km/h1518m8m/s-52.3°C0%41.3hPa2.3V00:00:0000:00:0000:00:00
AA1-152026-08-30 12:23:5454.9236319.90015100km/h1497m8m/s-52.3°C0%41.4hPa2.3V00:00:0000:00:0000:00:00
AA1-152026-08-30 12:23:5354.9233819.9001595km/h1487m8m/s-52.3°C0%41.4hPa2.3V00:00:0000:00:0000:00:00
AA1-152026-08-30 12:23:5054.9226519.90020100km/h1468m8.1m/s-52.3°C0%41.5hPa2.3V00:00:0000:00:0000:00:00
AA1-152026-08-30 12:23:4954.9219619.9002393km/h1449m8.1m/s-52.3°C0%41.7hPa2.3V00:00:0000:00:0000:00:00
AA1-152026-08-30 12:23:4754.9217019.9002395km/h1440m8.1m/s-52.2°C0%41.7hPa2.3V00:00:0000:00:0000:00:00
AA1-152026-08-30 12:23:4454.9211619.90022360°93km/h1420m8m/s-52.1°C0%41.8hPa2.3V00:00:0000:00:0000:00:00
AA1-152026-08-30 12:23:4354.9209519.90023100km/h1417m8m/s-52.1°C0%41.8hPa2.3V00:00:0000:00:0000:00:00
AA1-152026-08-30 12:23:4354.9207519.9002495km/h1414m7.9m/s-52.1°C0%41.9hPa2.3V00:00:0000:00:0000:00:00
AA1-152026-08-30 12:23:4054.9201919.9002395km/h1392m8.1m/s-52.1°C0%41.9hPa2.3V00:00:0000:00:0000:00:00
AA1-152026-08-30 12:23:3954.9199219.90022100km/h1381m8m/s-52.1°C0%41.9hPa2.3V00:00:0000:00:0000:00:00
AA1-152026-08-30 12:23:3854.9191819.9000924°97km/h1352m8.4m/s-52°C0%42.1hPa2.3V00:00:0000:00:0000:00:00
AA1-152026-08-30 12:23:3554.9189819.8998641°99km/h1344m7.9m/s-52°C0%42.1hPa2.3V00:00:0000:00:0000:00:00
AA1-152026-08-30 12:23:3454.9188219.8995359°97km/h1335m8m/s-52°C0%42.1hPa2.3V00:00:0000:00:0000:00:00
AA1-152026-08-30 12:23:3254.9187319.8987099°99km/h1317m8.1m/s-52.1°C0%42.2hPa2.3V00:00:0000:00:0000:00:00
AA1-152026-08-30 12:23:3054.9189119.89794134°95km/h1298m8.2m/s-52.3°C0%42.3hPa2.3V00:00:0000:00:0000:00:00
AA1-152026-08-30 12:23:2854.9192519.89757171°97km/h1284m8m/s-52.4°C0%42.4hPa2.3V00:00:0000:00:0000:00:00
AA1-152026-08-30 12:23:2754.9196719.89769206°100km/h1262m8.2m/s-52.5°C0%42.5hPa2.3V00:00:0000:00:0000:00:00
AA1-152026-08-30 12:23:2654.9199019.89793224°95km/h1259m8.2m/s-52.5°C0%42.5hPa2.3V00:00:0000:00:0000:00:00
AA1-152026-08-30 12:23:2454.9201019.89825242°97km/h1254m8.3m/s-52.5°C0%42.5hPa2.3V00:00:0000:00:0000:00:00
AA1-152026-08-30 12:23:2354.9202319.89863262°95km/h1248m8.7m/s-52.5°C0%42.5hPa2.3V00:00:0000:00:0000:00:00
AA1-152026-08-30 12:23:2254.9202419.89907270°99km/h1248m8m/s-52.5°C0%42.6hPa2.3V00:00:0000:00:0000:00:00
AA1-152026-08-30 12:23:2154.9202119.89990270°95km/h1221m8m/s-52.5°C0%42.7hPa2.3V00:00:0000:00:0000:00:00
AA1-152026-08-30 12:23:1954.9202119.90032270°95km/h1204m8m/s-52.5°C0%42.7hPa2.3V00:00:0000:00:0000:00:00
AA1-152026-08-30 12:23:1754.9202819.90120270°97km/h1187m8.1m/s-52.5°C0%42.7hPa2.3V00:00:0000:00:0000:00:00
AA1-152026-08-30 12:23:1654.9203619.90207270°95km/h1179m8m/s-52.5°C0%42.9hPa2.3V00:00:0000:00:0000:00:00
AA1-152026-08-30 12:23:1454.9203919.90251270°95km/h1172m8m/s-52.5°C0%42.9hPa2.3V00:00:0000:00:0000:00:00
AA1-152026-08-30 12:23:1254.9204719.90340270°95km/h1159m8.1m/s-52.6°C0%42.9hPa2.3V00:00:0000:00:0000:00:00
AA1-152026-08-30 12:23:1154.9204919.90385270°95km/h1149m8.1m/s-52.7°C0%43hPa2.3V00:00:0000:00:0000:00:00
AA1-152026-08-30 12:23:1054.9205419.90476270°95km/h1130m8m/s-52.8°C0%43.1hPa2.3V00:00:0000:00:0000:00:00
AA1-152026-08-30 12:23:0654.9208019.90631256°93km/h1139m8.1m/s-52.9°C0%43.2hPa2.3V00:00:0000:00:0000:00:00
AA1-152026-08-30 12:23:0554.9211319.90733239°97km/h1177m8.2m/s-52.9°C0%43.3hPa2.3V00:00:0000:00:0000:00:00
AA1-152026-08-30 12:23:0354.9214819.90791228°95km/h1205m8.1m/s-52.9°C0%43.3hPa2.3V00:00:0000:00:0000:00:00
AA1-152026-08-30 12:23:0154.9251719.91147204°95km/h1501m7.5m/s-53°C0%43.4hPa2.3V00:00:0000:00:0000:00:00
AA1-152026-08-30 12:23:0054.9263419.91309195°91km/h1434m1.5m/s-53°C0%43.4hPa2.3V00:00:0000:00:0000:00:00
AA1-152026-08-30 12:22:5554.8843720.0404017°5km/h159087m8.3m/s-53°C0%43.6hPa2.3V00:00:0000:00:0000:00:00
AA1-152026-08-30 12:22:4454.8840420.0410416km/h3062m8m/s-53.2°C0%44hPa2.3V00:00:0000:00:0000:00:00
AA1-152026-08-30 12:22:3354.8841720.04102360°18km/h2915m8.1m/s-52.9°C0%44.5hPa2.3V00:00:0000:00:0000:00:00
AA1-152026-08-30 12:22:2154.8842420.0408915km/h2839m8.6m/s-53.1°C0%44.9hPa2.3V00:00:0000:00:0000:00:00
AA1-152026-08-30 12:22:1154.8836620.040629km/h2700m8.1m/s-52.9°C0%45.4hPa2.3V00:00:0000:00:0000:00:00
AA1-152026-08-30 12:22:0154.8835420.0405316km/h2620m8.1m/s-52.6°C0%45.8hPa2.3V00:00:0000:00:0000:00:00
AA1-152026-08-30 12:21:5054.8832220.04082360°16km/h2550m8m/s-52.3°C0%46.2hPa2.3V00:00:0000:00:0000:00:00
AA1-152026-08-30 12:21:3954.8830620.04085359°11km/h2414m7.8m/s-52.3°C0%46.6hPa2.3V00:00:0000:00:0000:00:00
AA1-152026-08-30 12:21:2754.8824820.040929km/h2336m8m/s-52.4°C0%47.1hPa2.3V00:00:0000:00:0000:00:00
AA1-152026-08-30 12:21:1654.8821320.04097360°16km/h2264m7.9m/s-52.6°C0%47.6hPa2.3V00:00:0000:00:0000:00:00
AA1-152026-08-30 12:21:0554.8816720.0409816km/h2206m8.1m/s-52.6°C0%48hPa2.3V00:00:0000:00:0000:00:00
AA1-152026-08-30 12:20:5454.8811120.0409811km/h2129m8.1m/s-52.6°C0%48.5hPa2.3V00:00:0000:00:0000:00:00
AA1-152026-08-30 12:20:4454.8803220.041029km/h2052m8m/s-52.8°C0%48.9hPa2.3V00:00:0000:00:0000:00:00
AA1-152026-08-30 12:20:3454.8784220.04154346°91km/h1971m8.3m/s-52.7°C0%49.4hPa2.3V00:00:0000:00:0000:00:00
AA1-152026-08-30 12:20:3154.8777520.04178343°95km/h1946m8.2m/s-52.7°C0%49.5hPa2.3V00:00:0000:00:0000:00:00
AA1-152026-08-30 12:20:2954.8775220.04196341°95km/h1907m8.8m/s-52.7°C0%49.6hPa2.3V00:00:0000:00:0000:00:00
AA1-152026-08-30 12:20:2854.8775420.04203335°80km/h1872m11.6m/s-52.7°C0%49.6hPa2.3V00:00:0000:00:0000:00:00
AA1-152026-08-30 12:20:2454.8769120.04262334°99km/h1796m7.9m/s-52.7°C0%49.8hPa2.3V00:00:0000:00:0000:00:00
AA1-152026-08-30 12:20:2354.8766520.04281331°93km/h1785m7.8m/s-52.8°C0%49.9hPa2.3V00:00:0000:00:0000:00:00
AA1-152026-08-30 12:20:2154.8764120.04301330°95km/h1775m8.1m/s-52.8°C0%49.9hPa2.3V00:00:0000:00:0000:00:00
AA1-152026-08-30 12:20:2054.8759420.04343327°95km/h1753m8.2m/s-52.9°C0%50hPa2.3V00:00:0000:00:0000:00:00
AA1-152026-08-30 12:20:1954.8756920.04366326°97km/h1743m8.1m/s-52.9°C0%50hPa2.3V00:00:0000:00:0000:00:00
AA1-152026-08-30 12:20:1854.8754420.04390324°97km/h1734m8m/s-52.9°C0%50hPa2.3V00:00:0000:00:0000:00:00
AA1-152026-08-30 12:20:1654.8750320.04445319°93km/h1721m8.2m/s-52.8°C0%50.2hPa2.3V00:00:0000:00:0000:00:00
AA1-152026-08-30 12:20:1454.8747420.04503315°93km/h1707m8.1m/s-52.7°C0%50.2hPa2.3V00:00:0000:00:0000:00:00
AA1-152026-08-30 12:20:1354.8746120.04533316°93km/h1700m8m/s-52.6°C0%50.3hPa2.3V00:00:0000:00:0000:00:00
AA1-152026-08-30 12:20:1254.8745020.04564311°95km/h1693m8.2m/s-52.7°C0%50.3hPa2.3V00:00:0000:00:0000:00:00
AA1-152026-08-30 12:20:1054.8741020.04626311°97km/h1673m8m/s-52.7°C0%50.4hPa2.3V00:00:0000:00:0000:00:00
AA1-152026-08-30 12:20:0854.8737220.04689309°95km/h1654m8.1m/s-52.7°C0%50.5hPa2.3V00:00:0000:00:0000:00:00
AA1-152026-08-30 12:20:0754.8735920.04723306°95km/h1647m8.1m/s-52.7°C0%50.5hPa2.3V00:00:0000:00:0000:00:00
AA1-152026-08-30 12:20:0654.8734020.04756305°99km/h1636m8m/s-52.6°C0%50.5hPa2.3V00:00:0000:00:0000:00:00
AA1-152026-08-30 12:20:0454.8730620.04825303°97km/h1617m8m/s-52.6°C0%50.7hPa2.3V00:00:0000:00:0000:00:00
AA1-152026-08-30 12:20:0254.8727020.04898300°99km/h1597m8m/s-52.6°C0%50.7hPa2.3V00:00:0000:00:0000:00:00
AA1-152026-08-30 12:20:0154.8725320.04933297°93km/h1586m8.1m/s-52.6°C0%50.8hPa2.3V00:00:0000:00:0000:00:00
AA1-152026-08-30 12:20:0054.8724120.04970295°95km/h1572m8.2m/s-52.6°C0%50.8hPa2.3V00:00:0000:00:0000:00:00
AA1-152026-08-30 12:19:5854.8723120.05009294°99km/h1563m8.1m/s-52.5°C0%50.9hPa2.3V00:00:0000:00:0000:00:00
AA1-152026-08-30 12:19:5754.8722620.05088289°93km/h1545m8.4m/s-52.5°C0%51hPa2.3V00:00:0000:00:0000:00:00
AA1-152026-08-30 12:19:5454.8719920.05200288°95km/h1525m8.1m/s-52.5°C0%51.1hPa2.3V00:00:0000:00:0000:00:00
AA1-152026-08-30 12:19:5354.8719720.05242284°97km/h1521m8.2m/s-52.4°C0%51.1hPa2.3V00:00:0000:00:0000:00:00
AA1-152026-08-30 12:19:5154.8720420.05375280°93km/h1509m8.1m/s-52.4°C0%51.3hPa2.3V00:00:0000:00:0000:00:00
AA1-152026-08-30 12:19:5054.8720620.05418280°95km/h1505m8.1m/s-52.5°C0%51.2hPa2.3V00:00:0000:00:0000:00:00
AA1-152026-08-30 12:19:4654.8721320.05544276°97km/h1479m8.1m/s-52.5°C0%51.4hPa2.3V00:00:0000:00:0000:00:00
AA1-152026-08-30 12:19:4454.8721120.05586273°95km/h1471m8.1m/s-52.5°C0%51.5hPa2.3V00:00:0000:00:0000:00:00
AA1-152026-08-30 12:19:4354.8721520.05672267°99km/h1455m8m/s-52.6°C0%51.5hPa2.3V00:00:0000:00:0000:00:00
AA1-152026-08-30 12:19:4154.8722020.05758266°97km/h1439m8.2m/s-52.7°C0%51.6hPa2.3V00:00:0000:00:0000:00:00
AA1-152026-08-30 12:19:3954.8722520.05842263°97km/h1423m8.1m/s-52.8°C0%51.7hPa2.3V00:00:0000:00:0000:00:00
AA1-152026-08-30 12:19:3754.8723220.05927262°99km/h1406m8.1m/s-52.9°C0%51.8hPa2.3V00:00:0000:00:0000:00:00
AA1-152026-08-30 12:19:3054.8729920.06216248°97km/h1355m8m/s-53°C0%52.1hPa2.3V00:00:0000:00:0000:00:00
AA1-152026-08-30 12:19:2454.8737620.06454238°99km/h1325m7.9m/s-53.1°C0%52.3hPa2.3V00:00:0000:00:0000:00:00
AA1-152026-08-30 12:19:2254.8740920.06520234°95km/h1316m8.2m/s-53.1°C0%52.4hPa2.3V00:00:0000:00:0000:00:00
AA1-152026-08-30 12:19:1954.8745620.06616232°97km/h1309m8.5m/s-53.1°C0%52.5hPa2.3V00:00:0000:00:0000:00:00
AA1-152026-08-30 12:19:1154.8754120.06887219°95km/h1274m8.2m/s-52.8°C0%52.9hPa2.3V00:00:0000:00:0000:00:00
AA1-152026-08-30 12:19:0854.8760420.06960214°93km/h1243m8m/s-52.8°C0%53hPa2.3V00:00:0000:00:0000:00:00
AA1-152026-08-30 12:19:0754.8762720.06981211°99km/h1232m8.1m/s-52.8°C0%53.1hPa2.3V00:00:0000:00:0000:00:00
AA1-152026-08-30 12:19:0554.8767420.07022209°93km/h1209m8m/s-52.7°C0%53.2hPa2.3V00:00:0000:00:0000:00:00
AA1-152026-08-30 12:19:0254.8772420.07058205°97km/h1185m8m/s-52.6°C0%53.2hPa2.3V00:00:0000:00:0000:00:00
AA1-152026-08-30 12:19:0154.8775020.07074204°95km/h1173m8.1m/s-52.7°C0%53.3hPa2.3V00:00:0000:00:0000:00:00
AA1-152026-08-30 12:18:5854.8786620.07141196°100km/h1117m7.9m/s-52.7°C0%53.5hPa2.3V00:00:0000:00:0000:00:00
AA1-152026-08-30 12:18:5754.8790820.07159192°97km/h1092m8m/s-52.7°C0%53.6hPa2.3V00:00:0000:00:0000:00:00
AA1-152026-08-30 12:18:5554.8792720.07165193°97km/h1078m8.3m/s-52.7°C0%53.6hPa2.3V00:00:0000:00:0000:00:00
AA1-152026-08-30 12:18:5154.8800520.07177187°95km/h1044m8.2m/s-52.8°C0%53.8hPa2.3V00:00:0000:00:0000:00:00
AA1-152026-08-30 12:18:5054.8803420.07180186°99km/h1035m7.8m/s-52.9°C0%53.9hPa2.3V00:00:0000:00:0000:00:00
AA1-152026-08-30 12:18:4854.8811820.07171179°97km/h1000m8.7m/s-52.9°C0%54hPa2.3V00:00:0000:00:0000:00:00
AA1-152026-08-30 12:18:4654.8814320.07167180°95km/h990m8.7m/s-52.9°C0%54hPa2.3V00:00:0000:00:0000:00:00
AA1-152026-08-30 12:18:4154.8824020.07140174°104km/h953m8.8m/s-52.8°C0%54.2hPa2.3V00:00:0000:00:0000:00:00
AA1-152026-08-30 12:18:3954.8830220.07125167°99km/h939m8.2m/s-52.8°C0%54.3hPa2.3V00:00:0000:00:0000:00:00
AA1-152026-08-30 12:18:3854.8832220.07118166°93km/h936m8.1m/s-52.8°C0%54.4hPa2.3V00:00:0000:00:0000:00:00
AA1-152026-08-30 12:18:3654.8836320.07074164°93km/h929m8m/s-52.8°C0%54.5hPa2.3V00:00:0000:00:0000:00:00
AA1-152026-08-30 12:18:3554.8838520.07056162°95km/h923m8.1m/s-52.8°C0%54.5hPa2.3V00:00:0000:00:0000:00:00
AA1-152026-08-30 12:18:3254.8845020.07000155°95km/h903m7.9m/s-52.7°C0%54.6hPa2.3V00:00:0000:00:0000:00:00
AA1-152026-08-30 12:18:3154.8847220.06982155°97km/h896m8m/s-52.7°C0%54.7hPa2.3V00:00:0000:00:0000:00:00
AA1-152026-08-30 12:18:2554.8860120.06863145°95km/h853m8m/s-52.6°C0%54.9hPa2.3V00:00:0000:00:0000:00:00
AA1-152026-08-30 12:18:2354.8863820.06812141°95km/h843m8.1m/s-52.6°C0%55.1hPa2.3V00:00:0000:00:0000:00:00
AA1-152026-08-30 12:18:2154.8867520.06759142°97km/h829m8m/s-52.6°C0%55.1hPa2.3V00:00:0000:00:0000:00:00
AA1-152026-08-30 12:18:1954.8870720.06704136°91km/h816m8m/s-52.5°C0%55.2hPa2.3V00:00:0000:00:0000:00:00
AA1-152026-08-30 12:18:1854.8872120.06676134°95km/h810m8m/s-52.5°C0%55.3hPa2.3V00:00:0000:00:0000:00:00
AA1-152026-08-30 12:18:1654.8874820.06618130°97km/h796m7.9m/s-52.4°C0%55.3hPa2.3V00:00:0000:00:0000:00:00
AA1-152026-08-30 12:18:0854.8879320.06471119°97km/h742m8m/s-52.3°C0%55.7hPa2.3V00:00:0000:00:0000:00:00
AA1-152026-08-30 12:18:0654.8880820.06394114°91km/h725m7.9m/s-52.3°C0%55.8hPa2.3V00:00:0000:00:0000:00:00
AA1-152026-08-30 12:18:0454.8882420.06317116°95km/h707m8m/s-52.3°C0%55.9hPa2.3V00:00:0000:00:0000:00:00
AA1-152026-08-30 12:18:0354.8883020.06277112°95km/h698m8m/s-52.3°C0%55.9hPa2.3V00:00:0000:00:0000:00:00
AA1-152026-08-30 12:18:0254.8883620.06236109°97km/h689m8m/s-52.4°C0%56hPa2.3V00:00:0000:00:0000:00:00
AA1-152026-08-30 12:18:0154.8884120.06195110°97km/h680m8m/s-52.4°C0%56hPa2.3V00:00:0000:00:0000:00:00
AA1-152026-08-30 12:17:5954.8884620.06154107°95km/h671m8m/s-52.5°C0%56.1hPa2.3V00:00:0000:00:0000:00:00
AA1-152026-08-30 12:17:5854.8886520.06074105°97km/h660m8m/s-52.7°C0%56.1hPa2.3V00:00:0000:00:0000:00:00
AA1-152026-08-30 12:17:5754.8887620.06034102°99km/h655m8m/s-52.9°C0%56.2hPa2.3V00:00:0000:00:0000:00:00
AA1-152026-08-30 12:17:5354.8890620.0588498°97km/h649m7.9m/s-53.2°C0%56.4hPa2.3V00:00:0000:00:0000:00:00
AA1-152026-08-30 12:17:5154.8890320.0579792°95km/h631m7.9m/s-53.2°C0%56.5hPa2.3V00:00:0000:00:0000:00:00
AA1-152026-08-30 12:17:4954.8890120.0575493°95km/h622m8.1m/s-53.3°C0%56.5hPa2.3V00:00:0000:00:0000:00:00
AA1-152026-08-30 12:17:4954.8889820.0571090°95km/h613m7.9m/s-53.2°C0%56.6hPa2.3V00:00:0000:00:0000:00:00
AA1-152026-08-30 12:17:4854.8889520.0566788°95km/h604m8m/s-53.3°C0%56.6hPa2.3V00:00:0000:00:0000:00:00
AA1-152026-08-30 12:17:4554.8887720.0553383°97km/h575m8m/s-53.1°C0%56.8hPa2.3V00:00:0000:00:0000:00:00
AA1-152026-08-30 12:17:4454.8887120.0544981°97km/h559m7.9m/s-53.1°C0%56.8hPa2.3V00:00:0000:00:0000:00:00
AA1-152026-08-30 12:17:4054.8886320.0532477°97km/h534m8m/s-52.9°C0%57hPa2.3V00:00:0000:00:0000:00:00
AA1-152026-08-30 12:17:3854.8885720.0524473°95km/h516m8m/s-52.9°C0%57.1hPa2.3V00:00:0000:00:0000:00:00
AA1-152026-08-30 12:17:3754.8885320.0520471°97km/h506m8.1m/s-52.8°C0%57.2hPa2.3V00:00:0000:00:0000:00:00
AA1-152026-08-30 12:17:3454.8883620.0508566°99km/h473m8.1m/s-52.7°C0%57.3hPa2.3V00:00:0000:00:0000:00:00
AA1-152026-08-30 12:17:2754.8876120.0484254°95km/h427m8m/s-52.7°C0%57.6hPa2.3V00:00:0000:00:0000:00:00
AA1-152026-08-30 12:17:2153.1415439.1366529°95km/h159087m8.1m/s-53°C0%58hPa2.3V00:00:0000:00:0000:00:00
AA1-152026-08-30 12:17:1054.8829420.0425029°95km/h352m8.1m/s-52.8°C0%58.4hPa2.3V00:00:0000:00:0000:00:00
AA1-152026-08-30 12:17:0054.9524619.261610km/h159087m0m/s-52.8°C0%58.9hPa2.3V00:00:0000:00:0000:00:00
AA1-152026-08-30 12:16:4954.9523719.2613755°7km/h159087m8.2m/s-52.6°C0%59.4hPa2.3V00:00:0000:00:0000:00:00
AA1-152026-08-30 12:16:3954.9521919.26173268°16km/h2506m8.4m/s-52.4°C0%59.9hPa2.3V00:00:0000:00:0000:00:00
AA1-152026-08-30 12:16:2854.9520619.26221268°13km/h2386m8.4m/s-52°C0%60.4hPa2.3V00:00:0000:00:0000:00:00
AA1-152026-08-30 12:16:1454.9522119.26239269°13km/h2264m8.1m/s-51.6°C0%61.1hPa2.3V00:00:0000:00:0000:00:00
AA1-152026-08-30 12:16:0254.9524519.26270270°13km/h2169m8m/s-51.4°C0%61.7hPa2.3V00:00:0000:00:0000:00:00
AA1-152026-08-30 12:15:5254.9523719.26462249°11km/h159087m10.8m/s-51.2°C0%62.2hPa2.3V00:00:0000:00:0000:00:00
AA1-152026-08-30 12:15:3454.9524319.26541271°13km/h1943m8m/s-50.8°C0%63hPa2.3V00:00:0000:00:0000:00:00
AA1-152026-08-30 12:15:3354.9524519.26546269°16km/h1922m8.4m/s-50.7°C0%63.1hPa2.3V00:00:0000:00:0000:00:00
AA1-152026-08-30 12:15:3054.9524419.26557268°16km/h1906m8.4m/s-50.7°C0%63.2hPa2.3V00:00:0000:00:0000:00:00
AA1-152026-08-30 12:15:2854.9524219.26567269°13km/h1890m8.2m/s-50.7°C0%63.3hPa2.3V00:00:0000:00:0000:00:00
AA1-152026-08-30 12:15:2754.9524419.26570270°13km/h1877m8.1m/s-50.6°C0%63.4hPa2.3V00:00:0000:00:0000:00:00
AA1-152026-08-30 12:15:2654.9524419.26573270°13km/h1866m8.1m/s-50.7°C0%63.4hPa2.3V00:00:0000:00:0000:00:00
AA1-152026-08-30 12:15:2354.9524419.26588270°15km/h1839m8.4m/s-51°C0%63.6hPa2.3V00:00:0000:00:0000:00:00
AA1-152026-08-30 12:15:1954.9524319.26603269°13km/h1797m8.2m/s-51.3°C0%63.8hPa2.3V00:00:0000:00:0000:00:00
AA1-152026-08-30 12:15:1754.9524119.26615269°15km/h1764m8.1m/s-51.6°C0%63.9hPa2.3V00:00:0000:00:0000:00:00
AA1-152026-08-30 12:15:1454.9524019.26622270°15km/h1741m8.1m/s-51.7°C0%64hPa2.3V00:00:0000:00:0000:00:00
AA1-152026-08-30 12:15:1254.9523719.26631269°13km/h1717m8.2m/s-51.7°C0%64.1hPa2.3V00:00:0000:00:0000:00:00
AA1-152026-08-30 12:15:1154.9523119.26638270°13km/h1685m8.3m/s-51.7°C0%64.2hPa2.3V00:00:0000:00:0000:00:00
AA1-152026-08-30 12:15:0954.9522719.26642270°13km/h1669m8.1m/s-51.8°C0%64.2hPa2.3V00:00:0000:00:0000:00:00
AA1-152026-08-30 12:15:0854.9522319.26645270°13km/h1652m8.2m/s-51.8°C0%64.3hPa2.3V00:00:0000:00:0000:00:00
AA1-152026-08-30 12:15:0754.9521019.26657271°13km/h1602m8.3m/s-51.8°C0%64.4hPa2.3V00:00:0000:00:0000:00:00
AA1-152026-08-30 12:15:0354.9520919.26665270°13km/h1581m8m/s-51.9°C0%64.5hPa2.3V00:00:0000:00:0000:00:00
AA1-152026-08-30 12:15:0154.9521019.26668269°13km/h1563m8.3m/s-51.9°C0%64.6hPa2.3V00:00:0000:00:0000:00:00
AA1-152026-08-30 12:14:5854.9518419.26681270°13km/h1499m8m/s-51.9°C0%64.8hPa2.3V00:00:0000:00:0000:00:00
AA1-152026-08-30 12:14:5754.9518319.26684270°16km/h1489m8.1m/s-51.9°C0%64.8hPa2.3V00:00:0000:00:0000:00:00
AA1-152026-08-30 12:14:5554.9516219.26695269°15km/h1449m8.2m/s-51.8°C0%64.9hPa2.3V00:00:0000:00:0000:00:00
AA1-152026-08-30 12:14:5454.9515919.26698271°13km/h1438m8.5m/s-51.8°C0%65hPa2.3V00:00:0000:00:0000:00:00
AA1-152026-08-30 12:14:5254.9514919.26709270°16km/h1420m8.4m/s-51.8°C0%65.1hPa2.3V00:00:0000:00:0000:00:00
AA1-152026-08-30 12:14:5154.9514619.26717271°13km/h1412m8.4m/s-51.8°C0%65.1hPa2.3V00:00:0000:00:0000:00:00
AA1-152026-08-30 12:14:4854.9514219.26742270°15km/h1390m8m/s-51.9°C0%65.3hPa2.3V00:00:0000:00:0000:00:00
AA1-152026-08-30 12:14:4754.9514019.26752269°13km/h1382m8.2m/s-51.9°C0%65.3hPa2.3V00:00:0000:00:0000:00:00
AA1-152026-08-30 12:14:4554.9513719.26775270°16km/h1368m8.2m/s-52°C0%65.5hPa2.3V00:00:0000:00:0000:00:00
AA1-152026-08-30 12:14:4454.9513619.26789269°13km/h1361m8.2m/s-51.9°C0%65.5hPa2.3V00:00:0000:00:0000:00:00
AA1-152026-08-30 12:14:4254.9513419.26826270°13km/h1348m8.4m/s-51.9°C0%65.6hPa2.3V00:00:0000:00:0000:00:00
AA1-152026-08-30 12:14:4054.9513319.26922269°95km/h1328m8.6m/s-51.9°C0%65.8hPa2.3V00:00:0000:00:0000:00:00
AA1-152026-08-30 12:14:3954.9513819.26963260°97km/h1314m9m/s-51.9°C0%65.8hPa2.3V00:00:0000:00:0000:00:00
AA1-152026-08-30 12:14:3754.9514219.27006252°95km/h1311m8.4m/s-51.9°C0%65.9hPa2.3V00:00:0000:00:0000:00:00
AA1-152026-08-30 12:14:3554.9515719.27087239°97km/h1306m9.1m/s-52°C0%65.9hPa2.3V00:00:0000:00:0000:00:00
AA1-152026-08-30 12:14:3454.9519819.27194226°97km/h1296m9.1m/s-51.9°C0%66.1hPa2.3V00:00:0000:00:0000:00:00
AA1-152026-08-30 12:14:3054.9523219.27255210°97km/h1297m8.6m/s-51.9°C0%66.2hPa2.3V00:00:0000:00:0000:00:00
AA1-152026-08-30 12:14:2954.9527419.27299199°97km/h1299m8.2m/s-51.9°C0%66.3hPa2.3V00:00:0000:00:0000:00:00
AA1-152026-08-30 12:14:2754.9529619.27315193°99km/h1305m8.3m/s-51.9°C0%66.3hPa2.3V00:00:0000:00:0000:00:00
AA1-152026-08-30 12:14:2654.9531819.27326188°95km/h1306m9.5m/s-51.9°C0%66.4hPa2.3V00:00:0000:00:0000:00:00
AA1-152026-08-30 12:14:2354.9539019.27326169°97km/h1292m8.4m/s-51.9°C0%66.5hPa2.3V00:00:0000:00:0000:00:00
AA1-152026-08-30 12:14:2054.9545819.27281149°97km/h1263m8.9m/s-52.1°C0%66.7hPa2.3V00:00:0000:00:0000:00:00
AA1-152026-08-30 12:14:1854.9552919.27166125°95km/h1215m8.1m/s-52.2°C0%66.9hPa2.3V00:00:0000:00:0000:00:00
AA1-152026-08-30 12:14:1454.9555319.27094114°99km/h1197m8.2m/s-52.3°C0%67hPa2.3V00:00:0000:00:0000:00:00
AA1-152026-08-30 12:14:1354.9556219.27056110°97km/h1188m8.1m/s-52.4°C0%67.1hPa2.3V00:00:0000:00:0000:00:00
AA1-152026-08-30 12:14:1154.9557519.2697598°97km/h1169m8.1m/s-52.4°C0%67.2hPa2.3V00:00:0000:00:0000:00:00
AA1-152026-08-30 12:14:1054.9557819.2693494°95km/h1159m8.1m/s-52.4°C0%67.2hPa2.3V00:00:0000:00:0000:00:00
AA1-152026-08-30 12:14:0854.9557619.2685178°99km/h1138m8m/s-52.4°C0%67.3hPa2.3V00:00:0000:00:0000:00:00
AA1-152026-08-30 12:14:0754.9557019.2681274°95km/h1126m7.9m/s-52.4°C0%67.4hPa2.3V00:00:0000:00:0000:00:00
AA1-152026-08-30 12:14:0654.9555419.2674260°95km/h1106m8.4m/s-52.3°C0%67.5hPa2.3V00:00:0000:00:0000:00:00
AA1-152026-08-30 12:14:0554.9554019.2671154°95km/h1098m8.2m/s-52.4°C0%67.5hPa2.3V00:00:0000:00:0000:00:00
SP3BTT-102026-08-30 12:11:2854.9677418.21391132°42km/h18048m10.3m/s0°C0%0hPa0V00:00:0000:00:0000:00:00
SP3BTT-102026-08-30 11:57:4654.9405318.0893772°49km/h14225m5.4m/s0°C0%0hPa0V00:00:0000:00:0000:00:00
SP3BTT-102026-08-30 11:56:3654.9386818.0759583°53km/h13925m4.3m/s0°C0%0hPa0V00:00:0000:00:0000:00:00
SP3BTT-102026-08-30 11:55:5354.9373718.0662671°57km/h13736m7.0m/s0°C0%0hPa0V00:00:0000:00:0000:00:00
SP3BTT-102026-08-30 11:54:2954.9326818.0463486°57km/h13332m5.4m/s0°C0%0hPa0V00:00:0000:00:0000:00:00
SP3BTT-102026-08-30 11:53:3354.9301118.0338469°57km/h12998m5.3m/s0°C0%0hPa0V00:00:0000:00:0000:00:00
SP3BTT-102026-08-30 11:52:2854.9281718.0199871°60km/h12604m-1.2m/s0°C0%0hPa0V00:00:0000:00:0000:00:00
SP3BTT-102026-08-30 11:50:1154.9201717.9905574°57km/h11859m3.9m/s0°C0%0hPa0V00:00:0000:00:0000:00:00
SP3BTT-102026-08-30 11:49:1454.9169217.9764167°58km/h11532m7.5m/s0°C0%0hPa0V00:00:0000:00:0000:00:00
SP3BTT-102026-08-30 11:47:2654.9094517.9495267°68km/h10911m6.2m/s0°C0%0hPa0V00:00:0000:00:0000:00:00


GPX KML Map

© wettersonde.net (DO2JMG) - 2026  -  -